Observation data for Mertzon on 12/09/2018      Previous  Date       Current Mesonet Observations  Soil Data  Daily Summary Page  Observations in Plain Language
KME1 090600Z 00000KT 02/01 A3033 RMK A01 T00160012  RH  097%=      5-min Rain = 0
KME1 090601Z 00000KT 02/01 A3033 RMK A01 T00160013  RH  098%=      5-min Rain = 0
KME1 090602Z 00000KT 02/01 A3033 RMK A01 T00160013  RH  098%=      5-min Rain = 0
KME1 090603Z 00000KT 02/01 A3033 RMK A01 T00160014  RH  098%=      5-min Rain = 0
KME1 090604Z 00000KT 02/01 A3033 RMK A01 T00160014  RH  099%=      5-min Rain = 0
KME1 090605Z 00000KT 02/02 A3033 RMK A01 T00160015  RH  099%=      5-min Rain = 0
KME1 090606Z 00000KT 02/02 A3033 RMK A01 T00170016  RH  099%=      5-min Rain = 0
KME1 090607Z 00000KT 02/02 A3033 RMK A01 T00170016  RH  099%=      5-min Rain = 0
KME1 090608Z 00000KT 02/02 A3033 RMK A01 T00180016  RH  099%=      5-min Rain = 0
KME1 090609Z 00000KT 02/02 A3033 RMK A01 T00180016  RH  099%=      5-min Rain = 0
KME1 090610Z 00000KT 02/02 A3033 RMK A01 T00180016  RH  099%=      5-min Rain = 0
KME1 090611Z 00000KT 02/02 A3033 RMK A01 T00180016  RH  099%=      5-min Rain = 0
KME1 090612Z 00000KT 02/02 A3033 RMK A01 T00190017  RH  099%=      5-min Rain = 0
KME1 090613Z 00000KT 02/02 A3033 RMK A01 T00190017  RH  098%=      5-min Rain = 0
KME1 090614Z 00000KT 02/02 A3033 RMK A01 T00190017  RH  098%=      5-min Rain = 0
KME1 090615Z 00000KT 02/02 A3033 RMK A01 T00200017  RH  098%=      5-min Rain = 0
KME1 090616Z 00000KT 02/02 A3033 RMK A01 T00200018  RH  098%=      5-min Rain = 0
KME1 090617Z 00000KT 02/02 A3033 RMK A01 T00200017  RH  098%=      5-min Rain = 0
KME1 090618Z 00000KT 02/02 A3033 RMK A01 T00200017  RH  098%=      5-min Rain = 0
KME1 090619Z 00000KT 02/02 A3033 RMK A01 T00200018  RH  098%=      5-min Rain = 0
KME1 090620Z 00000KT 02/02 A3033 RMK A01 T00210019  RH  098%=      5-min Rain = 0
KME1 090621Z 00000KT 02/02 A3033 RMK A01 T00210019  RH  099%=      5-min Rain = 0
KME1 090622Z 26001KT 02/02 A3033 RMK A01 T00210019  RH  099%=      5-min Rain = 0
KME1 090623Z 26000KT 02/02 A3033 RMK A01 T00210019  RH  099%=      5-min Rain = 0
KME1 090624Z 26000KT 02/02 A3033 RMK A01 T00210019  RH  099%=      5-min Rain = 0
KME1 090625Z 26001KT 02/02 A3033 RMK A01 T00210020  RH  099%=      5-min Rain = 0
KME1 090626Z 27001KT 02/02 A3033 RMK A01 T00220020  RH  099%=      5-min Rain = 0
KME1 090627Z 27001KT 02/02 A3033 RMK A01 T00220020  RH  099%=      5-min Rain = 0
KME1 090628Z 27002KT 02/02 A3033 RMK A01 T00220020  RH  099%=      5-min Rain = 0
KME1 090629Z 27002KT 02/02 A3033 RMK A01 T00220020  RH  098%=      5-min Rain = 0
KME1 090630Z 27002KT 02/02 A3032 RMK A01 T00230021  RH  098%=      5-min Rain = 0
KME1 090631Z 27002KT 02/02 A3032 RMK A01 T00230021  RH  098%=      5-min Rain = 0
KME1 090632Z 28001KT 02/02 A3032 RMK A01 T00240021  RH  098%=      5-min Rain = 0
KME1 090633Z 29001KT 02/02 A3032 RMK A01 T00240021  RH  098%=      5-min Rain = 0
KME1 090634Z 00000KT 02/02 A3032 RMK A01 T00230021  RH  098%=      5-min Rain = 0
KME1 090635Z 35001KT 02/02 A3032 RMK A01 T00230021  RH  098%=      5-min Rain = 0
KME1 090636Z 35000KT 02/02 A3032 RMK A01 T00240022  RH  098%=      5-min Rain = 0
KME1 090637Z 35000KT 02/02 A3032 RMK A01 T00240022  RH  099%=      5-min Rain = 0
KME1 090638Z 35000KT 02/02 A3032 RMK A01 T00240022  RH  099%=      5-min Rain = 0
KME1 090639Z 31001KT 02/02 A3032 RMK A01 T00240022  RH  099%=      5-min Rain = 0
KME1 090640Z 31001KT 02/02 A3032 RMK A01 T00240022  RH  099%=      5-min Rain = 0
KME1 090641Z 32001KT 02/02 A3032 RMK A01 T00240022  RH  099%=      5-min Rain = 0
KME1 090642Z 32001KT 02/02 A3032 RMK A01 T00240022  RH  098%=      5-min Rain = 0
KME1 090643Z 33001KT 02/02 A3032 RMK A01 T00240022  RH  098%=      5-min Rain = 0
KME1 090644Z 01002KT 02/02 A3032 RMK A01 T00240021  RH  098%=      5-min Rain = 0
KME1 090645Z 01002KT 02/02 A3032 RMK A01 T00240021  RH  098%=      5-min Rain = 0
KME1 090646Z 01002KT 02/02 A3032 RMK A01 T00240021  RH  098%=      5-min Rain = 0
KME1 090647Z 36001KT 02/02 A3032 RMK A01 T00240021  RH  098%=      5-min Rain = 0
KME1 090648Z 35001KT 02/02 A3032 RMK A01 T00230021  RH  098%=      5-min Rain = 0
KME1 090649Z 34001KT 02/02 A3032 RMK A01 T00230021  RH  098%=      5-min Rain = 0
KME1 090650Z 32001KT 02/02 A3032 RMK A01 T00230021  RH  098%=      5-min Rain = 0
KME1 090651Z 32000KT 02/02 A3032 RMK A01 T00230021  RH  098%=      5-min Rain = 0
KME1 090652Z 00000KT 02/02 A3032 RMK A01 T00230020  RH  098%=      5-min Rain = 0
KME1 090653Z 00000KT 02/02 A3032 RMK A01 T00230020  RH  098%=      5-min Rain = 0
KME1 090654Z 00000KT 02/02 A3032 RMK A01 T00220020  RH  098%=      5-min Rain = 0
KME1 090655Z 00000KT 02/02 A3032 RMK A01 T00220019  RH  098%=      5-min Rain = 0
KME1 090656Z 32000KT 02/02 A3032 RMK A01 T00220020  RH  098%=      5-min Rain = 0
KME1 090657Z 32001KT 02/02 A3032 RMK A01 T00220020  RH  098%=      5-min Rain = 0
KME1 090658Z 32001KT 02/02 A3032 RMK A01 T00220020  RH  098%=      5-min Rain = 0
KME1 090659Z 32000KT 02/02 A3032 RMK A01 T00220020  RH  098%=      5-min Rain = 0
KME1 090700Z 00000KT 02/02 A3032 RMK A01 T00220020  RH  098%=      5-min Rain = 0
KME1 090701Z 00000KT 02/02 A3032 RMK A01 T00220020  RH  099%=      5-min Rain = 0
KME1 090702Z 00000KT 02/02 A3032 RMK A01 T00220020  RH  099%=      5-min Rain = 0
KME1 090703Z 00000KT 02/02 A3032 RMK A01 T00220020  RH  099%=      5-min Rain = 0
KME1 090704Z 32000KT 02/02 A3032 RMK A01 T00220020  RH  099%=      5-min Rain = 0
KME1 090705Z 32001KT 02/02 A3031 RMK A01 T00220020  RH  099%=      5-min Rain = 0
KME1 090706Z 32001KT 02/02 A3031 RMK A01 T00220020  RH  099%=      5-min Rain = 0
KME1 090707Z 32001KT 02/02 A3031 RMK A01 T00210020  RH  099%=      5-min Rain = 0
KME1 090708Z 32001KT 02/02 A3031 RMK A01 T00210020  RH  099%=      5-min Rain = 0
KME1 090709Z 32000KT 02/02 A3031 RMK A01 T00220021  RH  099%=      5-min Rain = 0
KME1 090710Z 00000KT 02/02 A3031 RMK A01 T00210020  RH  099%=      5-min Rain = 0
KME1 090711Z 00000KT 02/02 A3031 RMK A01 T00210021  RH  099%=      5-min Rain = 0
KME1 090712Z 00000KT 02/02 A3031 RMK A01 T00210021  RH  100%=      5-min Rain = 0
KME1 090713Z 00000KT 02/02 A3031 RMK A01 T00210021  RH  100%=      5-min Rain = 0
KME1 090714Z 32000KT 02/02 A3031 RMK A01 T00210021  RH  100%=      5-min Rain = 0
KME1 090715Z 32000KT 02/02 A3031 RMK A01 T00210021  RH  100%=      5-min Rain = 0
KME1 090716Z 00000KT 02/02 A3031 RMK A01 T00210021  RH  100%=      5-min Rain = 0
KME1 090717Z 00000KT 02/02 A3031 RMK A01 T00210021  RH  100%=      5-min Rain = 0
KME1 090718Z 32000KT 02/02 A3031 RMK A01 T00210021  RH  100%=      5-min Rain = 0
KME1 090719Z 32001KT 02/02 A3031 RMK A01 T00210021  RH  100%=      5-min Rain = 0
KME1 090720Z 32001KT 02/02 A3031 RMK A01 T00210021  RH  100%=      5-min Rain = 0
KME1 090721Z 32001KT 02/02 A3031 RMK A01 T00210021  RH  100%=      5-min Rain = 0
KME1 090722Z 32000KT 02/02 A3031 RMK A01 T00210021  RH  100%=      5-min Rain = 0
KME1 090723Z 32000KT 02/02 A3031 RMK A01 T00210021  RH  100%=      5-min Rain = 0
KME1 090724Z 32001KT 02/02 A3031 RMK A01 T00210021  RH  100%=      5-min Rain = 0
KME1 090725Z 32001KT 02/02 A3031 RMK A01 T00210021  RH  100%=      5-min Rain = 0
KME1 090726Z 32001KT 02/02 A3031 RMK A01 T00210021  RH  100%=      5-min Rain = 0
KME1 090727Z 32001KT 02/02 A3031 RMK A01 T00210021  RH  100%=      5-min Rain = 0
KME1 090728Z 32001KT 02/02 A3031 RMK A01 T00210021  RH  100%=      5-min Rain = 0
KME1 090729Z 32001KT 02/02 A3031 RMK A01 T00210021  RH  100%=      5-min Rain = 0
KME1 090730Z 32000KT 02/02 A3031 RMK A01 T00210021  RH  100%=      5-min Rain = 0
KME1 090731Z 00000KT 02/02 A3031 RMK A01 T00210021  RH  100%=      5-min Rain = 0
KME1 090732Z 02001KT 02/02 A3031 RMK A01 T00210021  RH  100%=      5-min Rain = 0
KME1 090733Z 02001KT 02/02 A3031 RMK A01 T00210021  RH  100%=      5-min Rain = 0
KME1 090734Z 02001KT 02/02 A3031 RMK A01 T00210021  RH  100%=      5-min Rain = 0
KME1 090735Z 02000KT 02/02 A3031 RMK A01 T00210021  RH  100%=      5-min Rain = 0
KME1 090736Z 00000KT 02/02 A3031 RMK A01 T00210021  RH  100%=      5-min Rain = 0
KME1 090737Z 02000KT 02/02 A3031 RMK A01 T00210021  RH  100%=      5-min Rain = 0
KME1 090738Z 02001KT 02/02 A3031 RMK A01 T00210021  RH  100%=      5-min Rain = 0
KME1 090739Z 02001KT 02/02 A3031 RMK A01 T00210021  RH  100%=      5-min Rain = 0
KME1 090740Z 02001KT 02/02 A3031 RMK A01 T00210021  RH  100%=      5-min Rain = 0
KME1 090741Z 02001KT 02/02 A3031 RMK A01 T00210021  RH  100%=      5-min Rain = 0
KME1 090742Z 02001KT 02/02 A3031 RMK A01 T00210021  RH  100%=      5-min Rain = 0
KME1 090743Z 02000KT 02/02 A3031 RMK A01 T00210021  RH  100%=      5-min Rain = 0
KME1 090744Z 00000KT 02/02 A3031 RMK A01 T00210021  RH  100%=      5-min Rain = 0
KME1 090745Z 00000KT 02/02 A3031 RMK A01 T00210021  RH  100%=      5-min Rain = 0
KME1 090746Z 00000KT 02/02 A3031 RMK A01 T00210021  RH  100%=      5-min Rain = 0
KME1 090747Z 00000KT 02/02 A3031 RMK A01 T00210021  RH  100%=      5-min Rain = 0
KME1 090748Z 02001KT 02/02 A3031 RMK A01 T00210021  RH  100%=      5-min Rain = 0
KME1 090749Z 02001KT 02/02 A3031 RMK A01 T00210021  RH  100%=      5-min Rain = 0
KME1 090750Z 02001KT 02/02 A3031 RMK A01 T00210021  RH  100%=      5-min Rain = 0
KME1 090751Z 02001KT 02/02 A3031 RMK A01 T00210021  RH  100%=      5-min Rain = 0
KME1 090752Z 02001KT 02/02 A3031 RMK A01 T00200020  RH  100%=      5-min Rain = 0
KME1 090753Z 02000KT 02/02 A3031 RMK A01 T00200020  RH  100%=      5-min Rain = 0
KME1 090754Z 00000KT 02/02 A3031 RMK A01 T00200020  RH  100%=      5-min Rain = 0
KME1 090755Z 00000KT 02/02 A3031 RMK A01 T00200020  RH  100%=      5-min Rain = 0
KME1 090756Z 00000KT 02/02 A3031 RMK A01 T00190019  RH  100%=      5-min Rain = 0
KME1 090757Z 06000KT 02/02 A3031 RMK A01 T00190019  RH  100%=      5-min Rain = 0
KME1 090758Z 06000KT 02/02 A3031 RMK A01 T00190019  RH  100%=      5-min Rain = 0
KME1 090759Z 00000KT 02/02 A3031 RMK A01 T00190019  RH  100%=      5-min Rain = 0
KME1 090800Z 06000KT 02/02 A3031 RMK A01 T00180018  RH  100%=      5-min Rain = 0
KME1 090801Z 06001KT 02/02 A3031 RMK A01 T00180018  RH  100%=      5-min Rain = 0
KME1 090802Z 06001KT 02/02 A3031 RMK A01 T00180018  RH  100%=      5-min Rain = 0
KME1 090803Z 06001KT 02/02 A3031 RMK A01 T00180018  RH  100%=      5-min Rain = 0
KME1 090804Z 07000KT 02/02 A3031 RMK A01 T00170017  RH  100%=      5-min Rain = 0
KME1 090805Z 09001KT 02/02 A303 RMK A01 T00170017  RH  100%=      5-min Rain = 0
KME1 090806Z 09001KT 02/02 A303 RMK A01 T00170017  RH  100%=      5-min Rain = 0
KME1 090807Z 09001KT 02/02 A303 RMK A01 T00170017  RH  100%=      5-min Rain = 0
KME1 090808Z 09000KT 02/02 A303 RMK A01 T00150015  RH  100%=      5-min Rain = 0
KME1 090809Z 00000KT 01/01 A303 RMK A01 T00140014  RH  100%=      5-min Rain = 0
KME1 090810Z 09000KT 01/01 A303 RMK A01 T00140014  RH  100%=      5-min Rain = 0
KME1 090811Z 09001KT 02/02 A303 RMK A01 T00150015  RH  100%=      5-min Rain = 0
KME1 090812Z 07001KT 02/02 A303 RMK A01 T00150015  RH  100%=      5-min Rain = 0
KME1 090813Z 06001KT 02/02 A303 RMK A01 T00150015  RH  100%=      5-min Rain = 0
KME1 090814Z 06001KT 02/02 A303 RMK A01 T00150015  RH  100%=      5-min Rain = 0
KME1 090815Z 06001KT 02/02 A303 RMK A01 T00150015  RH  100%=      5-min Rain = 0
KME1 090816Z 06001KT 01/01 A303 RMK A01 T00140014  RH  100%=      5-min Rain = 0
KME1 090817Z 06000KT 01/01 A303 RMK A01 T00140014  RH  100%=      5-min Rain = 0
KME1 090818Z 00000KT 02/02 A303 RMK A01 T00150015  RH  100%=      5-min Rain = 0
KME1 090819Z 00000KT 02/02 A303 RMK A01 T00150015  RH  100%=      5-min Rain = 0
KME1 090820Z 00000KT 02/02 A303 RMK A01 T00150015  RH  100%=      5-min Rain = 0
KME1 090821Z 00000KT 02/02 A303 RMK A01 T00150015  RH  100%=      5-min Rain = 0
KME1 090822Z 00000KT 02/02 A303 RMK A01 T00150015  RH  100%=      5-min Rain = 0
KME1 090823Z 00000KT 01/01 A303 RMK A01 T00140014  RH  100%=      5-min Rain = 0
KME1 090824Z 00000KT 01/01 A303 RMK A01 T00120011  RH  099%=      5-min Rain = 0
KME1 090825Z 00000KT 01/01 A303 RMK A01 T00110011  RH  100%=      5-min Rain = 0
KME1 090826Z 00000KT 01/01 A303 RMK A01 T00130013  RH  100%=      5-min Rain = 0
KME1 090827Z 00000KT 01/01 A303 RMK A01 T00120012  RH  100%=      5-min Rain = 0
KME1 090828Z 00000KT 01/01 A303 RMK A01 T00100008  RH  099%=      5-min Rain = 0
KME1 090829Z 00000KT 01/01 A303 RMK A01 T00080005  RH  098%=      5-min Rain = 0
KME1 090830Z 00000KT 01/01 A303 RMK A01 T00090007  RH  099%=      5-min Rain = 0
KME1 090831Z 00000KT 01/01 A303 RMK A01 T00080007  RH  099%=      5-min Rain = 0
KME1 090832Z 00000KT 01/00 A303 RMK A01 T00070004  RH  098%=      5-min Rain = 0
KME1 090833Z 00000KT 01/00 A303 RMK A01 T00050001  RH  098%=      5-min Rain = 0
KME1 090834Z 06000KT 00/00 A303 RMK A01 T000400-0  RH  097%=      5-min Rain = 0
KME1 090835Z 06001KT 00/M00 A303 RMK A01 T00021003  RH  097%=      5-min Rain = 0
KME1 090836Z 04001KT M00/M01 A303 RMK A01 T10011006  RH  096%=      5-min Rain = 0
KME1 090837Z 04001KT M00/M01 A303 RMK A01 T10021008  RH  096%=      5-min Rain = 0
KME1 090838Z 04001KT M00/M01 A303 RMK A01 T10031009  RH  096%=      5-min Rain = 0
KME1 090839Z 04001KT M00/M01 A303 RMK A01 T10041009  RH  096%=      5-min Rain = 0
KME1 090840Z 04001KT M00/M01 A303 RMK A01 T10041009  RH  097%=      5-min Rain = 0
KME1 090841Z 04001KT M01/M01 A303 RMK A01 T10051010  RH  097%=      5-min Rain = 0
KME1 090842Z 04001KT M01/M01 A303 RMK A01 T10061010  RH  097%=      5-min Rain = 0
KME1 090843Z 04001KT M01/M01 A303 RMK A01 T10061009  RH  097%=      5-min Rain = 0
KME1 090844Z 04000KT M01/M01 A303 RMK A01 T10061010  RH  098%=      5-min Rain = 0
KME1 090845Z 00000KT M01/M01 A303 RMK A01 T10061009  RH  098%=      5-min Rain = 0
KME1 090846Z 00000KT M01/M01 A303 RMK A01 T10071009  RH  098%=      5-min Rain = 0
KME1 090847Z 00000KT M01/M01 A303 RMK A01 T10061008  RH  099%=      5-min Rain = 0
KME1 090848Z 00000KT M01/M01 A303 RMK A01 T10061006  RH  100%=      5-min Rain = 0
KME1 090849Z 00000KT M01/M01 A303 RMK A01 T10051005  RH  100%=      5-min Rain = 0
KME1 090850Z 00000KT M01/M01 A303 RMK A01 T10051005  RH  100%=      5-min Rain = 0
KME1 090851Z 00000KT M01/M01 A303 RMK A01 T10051005  RH  100%=      5-min Rain = 0
KME1 090852Z 00000KT M01/M01 A303 RMK A01 T10051005  RH  100%=      5-min Rain = 0
KME1 090853Z 04000KT M01/M01 A303 RMK A01 T10061006  RH  100%=      5-min Rain = 0
KME1 090854Z 04000KT M01/M01 A303 RMK A01 T10061007  RH  100%=      5-min Rain = 0
KME1 090855Z 04000KT M01/M01 A303 RMK A01 T10071007  RH  100%=      5-min Rain = 0
KME1 090856Z 00000KT M01/M01 A303 RMK A01 T10071008  RH  100%=      5-min Rain = 0
KME1 090857Z 35001KT M01/M01 A303 RMK A01 T10071008  RH  100%=      5-min Rain = 0
KME1 090858Z 35001KT M01/M01 A303 RMK A01 T10081008  RH  100%=      5-min Rain = 0
KME1 090859Z 35001KT M01/M01 A303 RMK A01 T10081008  RH  100%=      5-min Rain = 0
KME1 090900Z 35001KT M01/M01 A303 RMK A01 T10081008  RH  100%=      5-min Rain = 0
KME1 090901Z 35001KT M01/M01 A303 RMK A01 T10091009  RH  100%=      5-min Rain = 0
KME1 090902Z 35001KT M01/M01 A303 RMK A01 T10091009  RH  100%=      5-min Rain = 0
KME1 090903Z 35001KT M01/M01 A303 RMK A01 T10081008  RH  100%=      5-min Rain = 0
KME1 090904Z 36001KT M01/M01 A303 RMK A01 T10081008  RH  100%=      5-min Rain = 0
KME1 090905Z 00001KT M01/M01 A303 RMK A01 T10071007  RH  100%=      5-min Rain = 0
KME1 090906Z 00001KT M01/M01 A303 RMK A01 T10071007  RH  100%=      5-min Rain = 0
KME1 090907Z 35001KT M01/M01 A303 RMK A01 T10071007  RH  100%=      5-min Rain = 0
KME1 090908Z 35001KT M01/M01 A303 RMK A01 T10061006  RH  100%=      5-min Rain = 0
KME1 090909Z 35001KT M00/M01 A303 RMK A01 T10041005  RH  100%=      5-min Rain = 0
KME1 090910Z 35001KT M00/M00 A303 RMK A01 T10021003  RH  100%=      5-min Rain = 0
KME1 090911Z 33001KT 00/00 A303 RMK A01 T00-000-0  RH  100%=      5-min Rain = 0
KME1 090912Z 33002KT 00/00 A303 RMK A01 T00020002  RH  100%=      5-min Rain = 0
KME1 090913Z 33002KT 00/00 A303 RMK A01 T00030003  RH  100%=      5-min Rain = 0
KME1 090914Z 33002KT 00/00 A303 RMK A01 T00030003  RH  100%=      5-min Rain = 0
KME1 090915Z 33002KT 00/00 A303 RMK A01 T00020002  RH  100%=      5-min Rain = 0
KME1 090916Z 33003KT 00/00 A303 RMK A01 T00020002  RH  100%=      5-min Rain = 0
KME1 090917Z 34003KT 00/00 A303 RMK A01 T00010000  RH  100%=      5-min Rain = 0
KME1 090918Z 34003KT M00/M00 A303 RMK A01 T10011001  RH  100%=      5-min Rain = 0
KME1 090919Z 34003KT M00/M00 A303 RMK A01 T10021002  RH  100%=      5-min Rain = 0
KME1 090920Z 34003KT M00/M00 A303 RMK A01 T10041004  RH  100%=      5-min Rain = 0
KME1 090921Z 34004KT M01/M01 A303 RMK A01 T10051005  RH  100%=      5-min Rain = 0
KME1 090922Z 35004KT M01/M01 A303 RMK A01 T10051005  RH  100%=      5-min Rain = 0
KME1 090923Z 35004KT M01/M01 A303 RMK A01 T10051005  RH  100%=      5-min Rain = 0
KME1 090924Z 34004KT M01/M01 A303 RMK A01 T10051005  RH  100%=      5-min Rain = 0
KME1 090925Z 02001KT M01/M01 A303 RMK A01 T10071007  RH  100%=      5-min Rain = 0
KME1 090926Z 34001KT M01/M01 A303 RMK A01 T10101010  RH  100%=      5-min Rain = 0
KME1 090927Z 33001KT M01/M01 A303 RMK A01 T10111011  RH  100%=      5-min Rain = 0
KME1 090928Z 33000KT M01/M01 A303 RMK A01 T10111011  RH  100%=      5-min Rain = 0
KME1 090929Z 00000KT M01/M01 A303 RMK A01 T10111011  RH  100%=      5-min Rain = 0
KME1 090930Z 00000KT M01/M01 A3031 RMK A01 T10111012  RH  100%=      5-min Rain = 0
KME1 090931Z 00000KT M01/M01 A3031 RMK A01 T10101010  RH  100%=      5-min Rain = 0
KME1 090932Z 34000KT M01/M01 A3031 RMK A01 T10091009  RH  100%=      5-min Rain = 0
KME1 090933Z 34000KT M01/M01 A3031 RMK A01 T10091009  RH  100%=      5-min Rain = 0
KME1 090934Z 00000KT M01/M01 A3031 RMK A01 T10091009  RH  100%=      5-min Rain = 0
KME1 090935Z 00000KT M01/M01 A3031 RMK A01 T10091009  RH  100%=      5-min Rain = 0
KME1 090936Z 00000KT M01/M01 A3031 RMK A01 T10091009  RH  100%=      5-min Rain = 0
KME1 090937Z 00000KT M01/M01 A3031 RMK A01 T10091009  RH  100%=      5-min Rain = 0
KME1 090938Z 00000KT M01/M01 A3031 RMK A01 T10091009  RH  100%=      5-min Rain = 0
KME1 090939Z 00000KT M01/M01 A3031 RMK A01 T10091009  RH  100%=      5-min Rain = 0
KME1 090940Z 00000KT M01/M01 A3031 RMK A01 T10091009  RH  100%=      5-min Rain = 0
KME1 090941Z 00000KT M01/M01 A3031 RMK A01 T10081008  RH  100%=      5-min Rain = 0
KME1 090942Z 34000KT M01/M01 A3031 RMK A01 T10081008  RH  100%=      5-min Rain = 0
KME1 090943Z 34000KT M01/M01 A3031 RMK A01 T10081008  RH  100%=      5-min Rain = 0
KME1 090944Z 00000KT M01/M01 A3031 RMK A01 T10091009  RH  100%=      5-min Rain = 0
KME1 090945Z 00000KT M01/M01 A3031 RMK A01 T10091009  RH  100%=      5-min Rain = 0
KME1 090946Z 00000KT M01/M01 A3031 RMK A01 T10091009  RH  100%=      5-min Rain = 0
KME1 090947Z 34000KT M01/M01 A3031 RMK A01 T10091009  RH  100%=      5-min Rain = 0
KME1 090948Z 34000KT M01/M01 A3031 RMK A01 T10091009  RH  100%=      5-min Rain = 0
KME1 090949Z 34001KT M01/M01 A3031 RMK A01 T10091009  RH  100%=      5-min Rain = 0
KME1 090950Z 34001KT M01/M01 A3031 RMK A01 T10101010  RH  100%=      5-min Rain = 0
KME1 090951Z 34000KT M01/M01 A3031 RMK A01 T10101010  RH  100%=      5-min Rain = 0
KME1 090952Z 34000KT M01/M01 A3031 RMK A01 T10101010  RH  100%=      5-min Rain = 0
KME1 090953Z 00000KT M01/M01 A3031 RMK A01 T10101010  RH  100%=      5-min Rain = 0
KME1 090954Z 00000KT M01/M01 A3031 RMK A01 T10091009  RH  100%=      5-min Rain = 0
KME1 090955Z 00000KT M01/M01 A3031 RMK A01 T10091009  RH  100%=      5-min Rain = 0
KME1 090956Z 00000KT M01/M01 A3031 RMK A01 T10091009  RH  100%=      5-min Rain = 0
KME1 090957Z 00000KT M01/M01 A3031 RMK A01 T10101010  RH  100%=      5-min Rain = 0
KME1 090958Z 00000KT M01/M01 A3031 RMK A01 T10101010  RH  100%=      5-min Rain = 0
KME1 090959Z 00000KT M01/M01 A3031 RMK A01 T10101010  RH  100%=      5-min Rain = 0
KME1 091000Z 00000KT M01/M01 A3031 RMK A01 T10101010  RH  100%=      5-min Rain = 0
KME1 091001Z 00000KT M01/M01 A3031 RMK A01 T10101010  RH  100%=      5-min Rain = 0
KME1 091002Z 00000KT M01/M01 A3031 RMK A01 T10101010  RH  100%=      5-min Rain = 0
KME1 091003Z 00000KT M01/M01 A3031 RMK A01 T10101010  RH  100%=      5-min Rain = 0
KME1 091004Z 00000KT M01/M01 A3031 RMK A01 T10101010  RH  100%=      5-min Rain = 0
KME1 091005Z 00000KT M01/M01 A3031 RMK A01 T10101010  RH  100%=      5-min Rain = 0
KME1 091006Z 00000KT M01/M01 A303 RMK A01 T10101010  RH  100%=      5-min Rain = 0
KME1 091007Z 00000KT M01/M01 A303 RMK A01 T10101011  RH  100%=      5-min Rain = 0
KME1 091008Z 00000KT M01/M01 A3031 RMK A01 T10101010  RH  100%=      5-min Rain = 0
KME1 091009Z 34000KT M01/M01 A3031 RMK A01 T10101010  RH  100%=      5-min Rain = 0
KME1 091010Z 34000KT M01/M01 A3031 RMK A01 T10111011  RH  100%=      5-min Rain = 0
KME1 091011Z 00000KT M01/M01 A3031 RMK A01 T10111011  RH  100%=      5-min Rain = 0
KME1 091012Z 00000KT M01/M01 A3031 RMK A01 T10111011  RH  100%=      5-min Rain = 0
KME1 091013Z 00000KT M01/M01 A3031 RMK A01 T10111011  RH  100%=      5-min Rain = 0
KME1 091014Z 00000KT M01/M01 A3031 RMK A01 T10111011  RH  100%=      5-min Rain = 0
KME1 091015Z 00000KT M01/M01 A3031 RMK A01 T10111011  RH  100%=      5-min Rain = 0
KME1 091016Z 00000KT M01/M01 A3031 RMK A01 T10121012  RH  100%=      5-min Rain = 0
KME1 091017Z 00000KT M01/M01 A3031 RMK A01 T10121012  RH  100%=      5-min Rain = 0
KME1 091018Z 00000KT M01/M01 A3031 RMK A01 T10121012  RH  100%=      5-min Rain = 0
KME1 091019Z 00000KT M01/M01 A3031 RMK A01 T10121013  RH  100%=      5-min Rain = 0
KME1 091020Z 00000KT M01/M01 A3031 RMK A01 T10121012  RH  100%=      5-min Rain = 0
KME1 091021Z 00000KT M01/M01 A3031 RMK A01 T10131013  RH  100%=      5-min Rain = 0
KME1 091022Z 00000KT M01/M01 A3031 RMK A01 T10121013  RH  100%=      5-min Rain = 0
KME1 091023Z 00000KT M01/M01 A3031 RMK A01 T10131013  RH  100%=      5-min Rain = 0
KME1 091024Z 00000KT M01/M01 A3031 RMK A01 T10131013  RH  100%=      5-min Rain = 0
KME1 091025Z 00000KT M01/M01 A3031 RMK A01 T10131013  RH  100%=      5-min Rain = 0
KME1 091026Z 00000KT M01/M01 A3031 RMK A01 T10121012  RH  100%=      5-min Rain = 0
KME1 091027Z 00000KT M01/M01 A3031 RMK A01 T10111011  RH  100%=      5-min Rain = 0
KME1 091028Z 00000KT M01/M01 A3031 RMK A01 T10101010  RH  100%=      5-min Rain = 0
KME1 091029Z 00000KT M01/M01 A3031 RMK A01 T10091009  RH  100%=      5-min Rain = 0
KME1 091030Z 34000KT M01/M01 A3031 RMK A01 T10081008  RH  100%=      5-min Rain = 0
KME1 091031Z 34000KT M01/M01 A3031 RMK A01 T10081008  RH  100%=      5-min Rain = 0
KME1 091032Z 00000KT M01/M01 A3031 RMK A01 T10081008  RH  100%=      5-min Rain = 0
KME1 091033Z 36001KT M01/M01 A3031 RMK A01 T10091009  RH  100%=      5-min Rain = 0
KME1 091034Z 36001KT M01/M01 A3031 RMK A01 T10091009  RH  100%=      5-min Rain = 0
KME1 091035Z 35001KT M01/M01 A3031 RMK A01 T10091009  RH  100%=      5-min Rain = 0
KME1 091036Z 35001KT M01/M01 A3031 RMK A01 T10091009  RH  100%=      5-min Rain = 0
KME1 091037Z 35001KT M01/M01 A3031 RMK A01 T10091009  RH  100%=      5-min Rain = 0
KME1 091038Z 34001KT M01/M01 A3031 RMK A01 T10081008  RH  100%=      5-min Rain = 0
KME1 091039Z 34002KT M01/M01 A3031 RMK A01 T10071007  RH  100%=      5-min Rain = 0
KME1 091040Z 34002KT M01/M01 A3031 RMK A01 T10061006  RH  100%=      5-min Rain = 0
KME1 091041Z 34003KT M01/M01 A3031 RMK A01 T10071007  RH  100%=      5-min Rain = 0
KME1 091042Z 34003KT M01/M01 A3031 RMK A01 T10081008  RH  100%=      5-min Rain = 0
KME1 091043Z 35003KT M01/M01 A3031 RMK A01 T10091009  RH  100%=      5-min Rain = 0
KME1 091044Z 34003KT M01/M01 A3031 RMK A01 T10101010  RH  100%=      5-min Rain = 0
KME1 091045Z 34002KT M01/M01 A3031 RMK A01 T10101010  RH  100%=      5-min Rain = 0
KME1 091046Z 34002KT M01/M01 A3031 RMK A01 T10091009  RH  100%=      5-min Rain = 0
KME1 091047Z 34002KT M01/M01 A3031 RMK A01 T10091009  RH  100%=      5-min Rain = 0
KME1 091048Z 33002KT M01/M01 A3031 RMK A01 T10101010  RH  100%=      5-min Rain = 0
KME1 091049Z 33002KT M01/M01 A3031 RMK A01 T10101010  RH  100%=      5-min Rain = 0
KME1 091050Z 32001KT M01/M01 A3032 RMK A01 T10111011  RH  100%=      5-min Rain = 0
KME1 091051Z 32001KT M01/M01 A3032 RMK A01 T10121012  RH  100%=      5-min Rain = 0
KME1 091052Z 00000KT M01/M01 A3032 RMK A01 T10131014  RH  100%=      5-min Rain = 0
KME1 091053Z 00000KT M02/M02 A3032 RMK A01 T10151015  RH  100%=      5-min Rain = 0
KME1 091054Z 00000KT M02/M02 A3032 RMK A01 T10171017  RH  100%=      5-min Rain = 0
KME1 091055Z 00000KT M02/M02 A3032 RMK A01 T10181018  RH  100%=      5-min Rain = 0
KME1 091056Z 00000KT M02/M02 A3032 RMK A01 T10181018  RH  100%=      5-min Rain = 0
KME1 091057Z 00000KT M02/M02 A3032 RMK A01 T10181018  RH  100%=      5-min Rain = 0
KME1 091058Z 00000KT M02/M02 A3032 RMK A01 T10181019  RH  100%=      5-min Rain = 0
KME1 091059Z 00000KT M02/M02 A3032 RMK A01 T10191019  RH  100%=      5-min Rain = 0
KME1 091100Z 00000KT M02/M02 A3032 RMK A01 T10181018  RH  100%=      5-min Rain = 0
KME1 091101Z 00000KT M02/M02 A3032 RMK A01 T10181018  RH  100%=      5-min Rain = 0
KME1 091102Z 00000KT M02/M02 A3032 RMK A01 T10181018  RH  100%=      5-min Rain = 0
KME1 091103Z 00000KT M02/M02 A3032 RMK A01 T10181018  RH  100%=      5-min Rain = 0
KME1 091104Z 31000KT M02/M02 A3032 RMK A01 T10171017  RH  100%=      5-min Rain = 0
KME1 091105Z 32001KT M02/M02 A3032 RMK A01 T10171017  RH  100%=      5-min Rain = 0
KME1 091106Z 33001KT M02/M02 A3032 RMK A01 T10171017  RH  100%=      5-min Rain = 0
KME1 091107Z 33001KT M02/M02 A3032 RMK A01 T10161016  RH  100%=      5-min Rain = 0
KME1 091108Z 34001KT M02/M02 A3032 RMK A01 T10161016  RH  100%=      5-min Rain = 0
KME1 091109Z 33001KT M02/M02 A3032 RMK A01 T10161016  RH  100%=      5-min Rain = 0
KME1 091110Z 34001KT M02/M02 A3032 RMK A01 T10161016  RH  100%=      5-min Rain = 0
KME1 091111Z 34001KT M02/M02 A3032 RMK A01 T10161016  RH  100%=      5-min Rain = 0
KME1 091112Z 34001KT M02/M02 A3032 RMK A01 T10171017  RH  100%=      5-min Rain = 0
KME1 091113Z 34001KT M02/M02 A3032 RMK A01 T10181018  RH  100%=      5-min Rain = 0
KME1 091114Z 35001KT M02/M02 A3032 RMK A01 T10191019  RH  100%=      5-min Rain = 0
KME1 091115Z 34002KT M02/M02 A3032 RMK A01 T10191019  RH  100%=      5-min Rain = 0
KME1 091116Z 35002KT M02/M02 A3032 RMK A01 T10201020  RH  100%=      5-min Rain = 0
KME1 091117Z 34002KT M02/M02 A3032 RMK A01 T10201020  RH  100%=      5-min Rain = 0
KME1 091118Z 34002KT M02/M02 A3032 RMK A01 T10201020  RH  100%=      5-min Rain = 0
KME1 091119Z 35002KT M02/M02 A3032 RMK A01 T10211021  RH  100%=      5-min Rain = 0
KME1 091120Z 35002KT M02/M02 A3032 RMK A01 T10211021  RH  100%=      5-min Rain = 0
KME1 091121Z 35002KT M02/M02 A3032 RMK A01 T10211021  RH  100%=      5-min Rain = 0
KME1 091122Z 36002KT M02/M02 A3032 RMK A01 T10211021  RH  100%=      5-min Rain = 0
KME1 091123Z 35002KT M02/M02 A3032 RMK A01 T10211021  RH  100%=      5-min Rain = 0
KME1 091124Z 34003KT M02/M02 A3032 RMK A01 T10211021  RH  100%=      5-min Rain = 0
KME1 091125Z 35002KT M02/M02 A3032 RMK A01 T10211021  RH  100%=      5-min Rain = 0
KME1 091126Z 34003KT M02/M02 A3032 RMK A01 T10201021  RH  100%=      5-min Rain = 0
KME1 091127Z 35003KT M02/M02 A3032 RMK A01 T10171017  RH  100%=      5-min Rain = 0
KME1 091128Z 35003KT M01/M01 A3032 RMK A01 T10141014  RH  100%=      5-min Rain = 0
KME1 091129Z 35003KT M01/M01 A3032 RMK A01 T10121012  RH  100%=      5-min Rain = 0
KME1 091130Z 35002KT M01/M01 A3032 RMK A01 T10121012  RH  100%=      5-min Rain = 0
KME1 091131Z 35002KT M01/M01 A3032 RMK A01 T10121012  RH  100%=      5-min Rain = 0
KME1 091132Z 35002KT M01/M01 A3032 RMK A01 T10121012  RH  100%=      5-min Rain = 0
KME1 091133Z 35002KT M01/M01 A3032 RMK A01 T10111011  RH  100%=      5-min Rain = 0
KME1 091134Z 35002KT M01/M01 A3032 RMK A01 T10111011  RH  100%=      5-min Rain = 0
KME1 091135Z 34001KT M01/M01 A3032 RMK A01 T10101010  RH  100%=      5-min Rain = 0
KME1 091136Z 34001KT M01/M01 A3032 RMK A01 T10101010  RH  100%=      5-min Rain = 0
KME1 091137Z 34002KT M01/M01 A3032 RMK A01 T10101010  RH  100%=      5-min Rain = 0
KME1 091138Z 35002KT M01/M01 A3032 RMK A01 T10091009  RH  100%=      5-min Rain = 0
KME1 091139Z 35002KT M01/M01 A3032 RMK A01 T10091009  RH  100%=      5-min Rain = 0
KME1 091140Z 35002KT M01/M01 A3032 RMK A01 T10091009  RH  100%=      5-min Rain = 0
KME1 091141Z 34002KT M01/M01 A3032 RMK A01 T10081009  RH  100%=      5-min Rain = 0
KME1 091142Z 33002KT M01/M01 A3032 RMK A01 T10081008  RH  100%=      5-min Rain = 0
KME1 091143Z 34002KT M01/M01 A3032 RMK A01 T10061007  RH  100%=      5-min Rain = 0
KME1 091144Z 33003KT M01/M01 A3032 RMK A01 T10061006  RH  100%=      5-min Rain = 0
KME1 091145Z 34003KT M01/M01 A3032 RMK A01 T10071007  RH  100%=      5-min Rain = 0
KME1 091146Z 33003KT M01/M01 A3032 RMK A01 T10081008  RH  100%=      5-min Rain = 0
KME1 091147Z 34003KT M01/M01 A3032 RMK A01 T10081009  RH  100%=      5-min Rain = 0
KME1 091148Z 33003KT M01/M01 A3032 RMK A01 T10091009  RH  100%=      5-min Rain = 0
KME1 091149Z 34004KT M01/M01 A3033 RMK A01 T10101010  RH  100%=      5-min Rain = 0
KME1 091150Z 33003KT M01/M01 A3033 RMK A01 T10111011  RH  100%=      5-min Rain = 0
KME1 091151Z 34003KT M01/M01 A3033 RMK A01 T10111011  RH  100%=      5-min Rain = 0
KME1 091152Z 34003KT M01/M01 A3033 RMK A01 T10111011  RH  100%=      5-min Rain = 0
KME1 091153Z 35003KT M01/M01 A3033 RMK A01 T10121012  RH  100%=      5-min Rain = 0
KME1 091154Z 35002KT M02/M02 A3033 RMK A01 T10151015  RH  100%=      5-min Rain = 0
KME1 091155Z 02001KT M02/M02 A3033 RMK A01 T10181018  RH  100%=      5-min Rain = 0
KME1 091156Z 02001KT M02/M02 A3033 RMK A01 T10201020  RH  100%=      5-min Rain = 0
KME1 091157Z 02001KT M02/M02 A3033 RMK A01 T10211021  RH  100%=      5-min Rain = 0
KME1 091158Z 02000KT M02/M02 A3033 RMK A01 T10211021  RH  100%=      5-min Rain = 0
KME1 091159Z 02000KT M02/M02 A3033 RMK A01 T10211021  RH  100%=      5-min Rain = 0
KME1 091200Z 02000KT M02/M02 A3033 RMK A01 T10211022  RH  100%=      5-min Rain = 0
KME1 091201Z 32001KT M02/M02 A3033 RMK A01 T10221022  RH  100%=      5-min Rain = 0
KME1 091202Z 32001KT M02/M02 A3033 RMK A01 T10221022  RH  100%=      5-min Rain = 0
KME1 091203Z 32001KT M02/M02 A3033 RMK A01 T10211021  RH  100%=      5-min Rain = 0
KME1 091204Z 32001KT M02/M02 A3033 RMK A01 T10211021  RH  100%=      5-min Rain = 0
KME1 091205Z 32001KT M02/M02 A3033 RMK A01 T10201020  RH  100%=      5-min Rain = 0
KME1 091206Z 32001KT M02/M02 A3033 RMK A01 T10201020  RH  100%=      5-min Rain = 0
KME1 091207Z 33001KT M02/M02 A3033 RMK A01 T10191020  RH  100%=      5-min Rain = 0
KME1 091208Z 34001KT M02/M02 A3033 RMK A01 T10191019  RH  100%=      5-min Rain = 0
KME1 091209Z 33001KT M02/M02 A3033 RMK A01 T10181018  RH  100%=      5-min Rain = 0
KME1 091210Z 34001KT M02/M02 A3033 RMK A01 T10181018  RH  100%=      5-min Rain = 0
KME1 091211Z 33001KT M02/M02 A3033 RMK A01 T10171017  RH  100%=      5-min Rain = 0
KME1 091212Z 33001KT M02/M02 A3033 RMK A01 T10171017  RH  100%=      5-min Rain = 0
KME1 091213Z 33001KT M02/M02 A3033 RMK A01 T10181018  RH  100%=      5-min Rain = 0
KME1 091214Z 33000KT M02/M02 A3033 RMK A01 T10191019  RH  100%=      5-min Rain = 0
KME1 091215Z 00000KT M02/M02 A3033 RMK A01 T10201020  RH  100%=      5-min Rain = 0
KME1 091216Z 21000KT M02/M02 A3033 RMK A01 T10211021  RH  100%=      5-min Rain = 0
KME1 091217Z 17001KT M02/M02 A3033 RMK A01 T10211021  RH  100%=      5-min Rain = 0
KME1 091218Z 16001KT M02/M02 A3033 RMK A01 T10211021  RH  100%=      5-min Rain = 0
KME1 091219Z 16001KT M02/M02 A3033 RMK A01 T10221022  RH  100%=      5-min Rain = 0
KME1 091220Z 18001KT M02/M02 A3033 RMK A01 T10221022  RH  100%=      5-min Rain = 0
KME1 091221Z 19001KT M02/M02 A3033 RMK A01 T10221022  RH  100%=      5-min Rain = 0
KME1 091222Z 21001KT M02/M02 A3033 RMK A01 T10221022  RH  100%=      5-min Rain = 0
KME1 091223Z 25001KT M02/M02 A3033 RMK A01 T10221022  RH  100%=      5-min Rain = 0
KME1 091224Z 28001KT M02/M02 A3034 RMK A01 T10221022  RH  100%=      5-min Rain = 0
KME1 091225Z 28001KT M02/M02 A3034 RMK A01 T10221022  RH  100%=      5-min Rain = 0
KME1 091226Z 30001KT M02/M02 A3034 RMK A01 T10211022  RH  100%=      5-min Rain = 0
KME1 091227Z 29001KT M02/M02 A3034 RMK A01 T10211021  RH  100%=      5-min Rain = 0
KME1 091228Z 29002KT M02/M02 A3034 RMK A01 T10201020  RH  100%=      5-min Rain = 0
KME1 091229Z 30002KT M02/M02 A3034 RMK A01 T10191019  RH  100%=      5-min Rain = 0
KME1 091230Z 30002KT M02/M02 A3034 RMK A01 T10191019  RH  100%=      5-min Rain = 0
KME1 091231Z 30002KT M02/M02 A3034 RMK A01 T10181018  RH  100%=      5-min Rain = 0
KME1 091232Z 30002KT M02/M02 A3034 RMK A01 T10181018  RH  100%=      5-min Rain = 0
KME1 091233Z 31002KT M02/M02 A3034 RMK A01 T10181018  RH  100%=      5-min Rain = 0
KME1 091234Z 31002KT M02/M02 A3034 RMK A01 T10171018  RH  100%=      5-min Rain = 0
KME1 091235Z 32002KT M02/M02 A3034 RMK A01 T10161016  RH  100%=      5-min Rain = 0
KME1 091236Z 32002KT M02/M02 A3034 RMK A01 T10151015  RH  100%=      5-min Rain = 0
KME1 091237Z 32002KT M02/M02 A3034 RMK A01 T10151015  RH  100%=      5-min Rain = 0
KME1 091238Z 32001KT M02/M02 A3034 RMK A01 T10151015  RH  100%=      5-min Rain = 0
KME1 091239Z 32001KT M01/M02 A3034 RMK A01 T10141015  RH  100%=      5-min Rain = 0
KME1 091240Z 32001KT M02/M02 A3034 RMK A01 T10161016  RH  100%=      5-min Rain = 0
KME1 091241Z 33001KT M02/M02 A3034 RMK A01 T10181018  RH  100%=      5-min Rain = 0
KME1 091242Z 34001KT M02/M02 A3034 RMK A01 T10191019  RH  100%=      5-min Rain = 0
KME1 091243Z 34002KT M02/M02 A3034 RMK A01 T10201020  RH  100%=      5-min Rain = 0
KME1 091244Z 34001KT M02/M02 A3034 RMK A01 T10211021  RH  100%=      5-min Rain = 0
KME1 091245Z 34001KT M02/M02 A3034 RMK A01 T10221022  RH  100%=      5-min Rain = 0
KME1 091246Z 34001KT M02/M02 A3034 RMK A01 T10221022  RH  100%=      5-min Rain = 0
KME1 091247Z 34001KT M02/M02 A3034 RMK A01 T10221022  RH  100%=      5-min Rain = 0
KME1 091248Z 34001KT M02/M02 A3034 RMK A01 T10221022  RH  100%=      5-min Rain = 0
KME1 091249Z 33001KT M02/M02 A3034 RMK A01 T10221022  RH  100%=      5-min Rain = 0
KME1 091250Z 33002KT M02/M02 A3034 RMK A01 T10211022  RH  100%=      5-min Rain = 0
KME1 091251Z 33001KT M02/M02 A3034 RMK A01 T10221022  RH  100%=      5-min Rain = 0
KME1 091252Z 35001KT M02/M02 A3034 RMK A01 T10221022  RH  100%=      5-min Rain = 0
KME1 091253Z 00000KT M02/M02 A3034 RMK A01 T10221022  RH  100%=      5-min Rain = 0
KME1 091254Z 00000KT M02/M02 A3034 RMK A01 T10221022  RH  100%=      5-min Rain = 0
KME1 091255Z 36000KT M02/M02 A3034 RMK A01 T10211021  RH  100%=      5-min Rain = 0
KME1 091256Z 01001KT M02/M02 A3034 RMK A01 T10211021  RH  100%=      5-min Rain = 0
KME1 091257Z 01002KT M02/M02 A3034 RMK A01 T10211021  RH  100%=      5-min Rain = 0
KME1 091258Z 00000KT M02/M02 A3035 RMK A01 T10201020  RH  100%=      5-min Rain = 0
KME1 091259Z 35000KT M02/M02 A3035 RMK A01 T10201020  RH  100%=      5-min Rain = 0
KME1 091300Z 34000KT M02/M02 A3035 RMK A01 T10201020  RH  100%=      5-min Rain = 0
KME1 091301Z 35000KT M02/M02 A3035 RMK A01 T10201020  RH  100%=      5-min Rain = 0
KME1 091302Z 34000KT M02/M02 A3035 RMK A01 T10201020  RH  100%=      5-min Rain = 0
KME1 091303Z 34000KT M02/M02 A3035 RMK A01 T10201020  RH  100%=      5-min Rain = 0
KME1 091304Z 34001KT M02/M02 A3035 RMK A01 T10201020  RH  100%=      5-min Rain = 0
KME1 091305Z 34000KT M02/M02 A3035 RMK A01 T10191019  RH  100%=      5-min Rain = 0
KME1 091306Z 34000KT M02/M02 A3035 RMK A01 T10181018  RH  100%=      5-min Rain = 0
KME1 091307Z 36000KT M02/M02 A3035 RMK A01 T10171017  RH  100%=      5-min Rain = 0
KME1 091308Z 00000KT M02/M02 A3035 RMK A01 T10161016  RH  100%=      5-min Rain = 0
KME1 091309Z 00001KT M02/M02 A3035 RMK A01 T10151015  RH  100%=      5-min Rain = 0
KME1 091310Z 02001KT M02/M02 A3035 RMK A01 T10151015  RH  100%=      5-min Rain = 0
KME1 091311Z 02000KT M02/M02 A3035 RMK A01 T10151015  RH  100%=      5-min Rain = 0
KME1 091312Z 01000KT M01/M01 A3035 RMK A01 T10141014  RH  100%=      5-min Rain = 0
KME1 091313Z 34000KT M01/M01 A3035 RMK A01 T10141014  RH  100%=      5-min Rain = 0
KME1 091314Z 34000KT M01/M01 A3036 RMK A01 T10141014  RH  100%=      5-min Rain = 0
KME1 091315Z 33001KT M01/M01 A3036 RMK A01 T10141014  RH  100%=      5-min Rain = 0
KME1 091316Z 33001KT M01/M02 A3035 RMK A01 T10141015  RH  100%=      5-min Rain = 0
KME1 091317Z 32001KT M02/M02 A3035 RMK A01 T10151015  RH  100%=      5-min Rain = 0
KME1 091318Z 32001KT M01/M02 A3036 RMK A01 T10141015  RH  100%=      5-min Rain = 0
KME1 091319Z 32001KT M02/M02 A3036 RMK A01 T10151015  RH  100%=      5-min Rain = 0
KME1 091320Z 31001KT M02/M02 A3036 RMK A01 T10151015  RH  100%=      5-min Rain = 0
KME1 091321Z 32001KT M02/M02 A3036 RMK A01 T10151015  RH  100%=      5-min Rain = 0
KME1 091322Z 33001KT M02/M02 A3036 RMK A01 T10151015  RH  100%=      5-min Rain = 0
KME1 091323Z 33001KT M02/M02 A3036 RMK A01 T10161016  RH  100%=      5-min Rain = 0
KME1 091324Z 33001KT M02/M02 A3036 RMK A01 T10161016  RH  100%=      5-min Rain = 0
KME1 091325Z 32001KT M02/M02 A3036 RMK A01 T10161016  RH  100%=      5-min Rain = 0
KME1 091326Z 31001KT M02/M02 A3036 RMK A01 T10161016  RH  100%=      5-min Rain = 0
KME1 091327Z 30001KT M02/M02 A3036 RMK A01 T10161016  RH  100%=      5-min Rain = 0
KME1 091328Z 31001KT M02/M02 A3036 RMK A01 T10161017  RH  100%=      5-min Rain = 0
KME1 091329Z 31001KT M02/M02 A3036 RMK A01 T10161016  RH  100%=      5-min Rain = 0
KME1 091330Z 31000KT M02/M02 A3036 RMK A01 T10161016  RH  100%=      5-min Rain = 0
KME1 091331Z 31001KT M02/M02 A3036 RMK A01 T10161016  RH  100%=      5-min Rain = 0
KME1 091332Z 31000KT M02/M02 A3036 RMK A01 T10161016  RH  100%=      5-min Rain = 0
KME1 091333Z 31000KT M02/M02 A3036 RMK A01 T10161016  RH  100%=      5-min Rain = 0
KME1 091334Z 31001KT M02/M02 A3036 RMK A01 T10161016  RH  100%=      5-min Rain = 0
KME1 091335Z 32001KT M02/M02 A3036 RMK A01 T10161016  RH  100%=      5-min Rain = 0
KME1 091336Z 32001KT M02/M02 A3036 RMK A01 T10161016  RH  100%=      5-min Rain = 0
KME1 091337Z 32001KT M02/M02 A3036 RMK A01 T10161016  RH  100%=      5-min Rain = 0
KME1 091338Z 33002KT M02/M02 A3036 RMK A01 T10161016  RH  100%=      5-min Rain = 0
KME1 091339Z 33002KT M02/M02 A3036 RMK A01 T10151015  RH  100%=      5-min Rain = 0
KME1 091340Z 32003KT M02/M02 A3036 RMK A01 T10151015  RH  100%=      5-min Rain = 0
KME1 091341Z 32003KT M01/M01 A3036 RMK A01 T10141014  RH  100%=      5-min Rain = 0
KME1 091342Z 33002KT M01/M01 A3036 RMK A01 T10141014  RH  100%=      5-min Rain = 0
KME1 091343Z 32003KT M01/M01 A3036 RMK A01 T10141014  RH  100%=      5-min Rain = 0
KME1 091344Z 33002KT M01/M01 A3036 RMK A01 T10141014  RH  100%=      5-min Rain = 0
KME1 091345Z 32002KT M01/M01 A3036 RMK A01 T10131014  RH  100%=      5-min Rain = 0
KME1 091346Z 32003KT M01/M01 A3036 RMK A01 T10131013  RH  100%=      5-min Rain = 0
KME1 091347Z 33002KT M01/M01 A3036 RMK A01 T10131013  RH  100%=      5-min Rain = 0
KME1 091348Z 33002KT M01/M01 A3036 RMK A01 T10131013  RH  100%=      5-min Rain = 0
KME1 091349Z 34002KT M01/M01 A3036 RMK A01 T10131013  RH  100%=      5-min Rain = 0
KME1 091350Z 33002KT M01/M01 A3036 RMK A01 T10121013  RH  099%=      5-min Rain = 0
KME1 091351Z 33001KT M01/M01 A3036 RMK A01 T10121013  RH  099%=      5-min Rain = 0
KME1 091352Z 33002KT M01/M01 A3036 RMK A01 T10121013  RH  099%=      5-min Rain = 0
KME1 091353Z 33002KT M01/M01 A3036 RMK A01 T10121013  RH  099%=      5-min Rain = 0
KME1 091354Z 33002KT M01/M01 A3036 RMK A01 T10111014  RH  099%=      5-min Rain = 0
KME1 091355Z 32002KT M01/M01 A3036 RMK A01 T10111014  RH  098%=      5-min Rain = 0
KME1 091356Z 32002KT M01/M01 A3036 RMK A01 T10111014  RH  098%=      5-min Rain = 0
KME1 091357Z 32003KT M01/M01 A3036 RMK A01 T10111014  RH  098%=      5-min Rain = 0
KME1 091358Z 32003KT M01/M01 A3036 RMK A01 T10111014  RH  098%=      5-min Rain = 0
KME1 091359Z 32003KT M01/M01 A3036 RMK A01 T10111014  RH  098%=      5-min Rain = 0
KME1 091400Z 32004KT M01/M01 A3037 RMK A01 T10111014  RH  098%=      5-min Rain = 0
KME1 091401Z 32004KT M01/M01 A3037 RMK A01 T10101013  RH  098%=      5-min Rain = 0
KME1 091402Z 32004KT M01/M01 A3037 RMK A01 T10091012  RH  098%=      5-min Rain = 0
KME1 091403Z 33004KT M01/M01 A3037 RMK A01 T10091012  RH  098%=      5-min Rain = 0
KME1 091404Z 32004KT M01/M01 A3037 RMK A01 T10081011  RH  098%=      5-min Rain = 0
KME1 091405Z 32004KT M01/M01 A3037 RMK A01 T10081011  RH  098%=      5-min Rain = 0
KME1 091406Z 32004KT M01/M01 A3037 RMK A01 T10071010  RH  098%=      5-min Rain = 0
KME1 091407Z 32005KT M01/M01 A3037 RMK A01 T10061010  RH  098%=      5-min Rain = 0
KME1 091408Z 32004KT M01/M01 A3037 RMK A01 T10061009  RH  098%=      5-min Rain = 0
KME1 091409Z 32005KT M01/M01 A3037 RMK A01 T10051009  RH  097%=      5-min Rain = 0
KME1 091410Z 32004KT M01/M01 A3037 RMK A01 T10051008  RH  097%=      5-min Rain = 0
KME1 091411Z 32005KT M00/M01 A3037 RMK A01 T10041008  RH  097%=      5-min Rain = 0
KME1 091412Z 33005KT M00/M01 A3037 RMK A01 T10041008  RH  097%=      5-min Rain = 0
KME1 091413Z 33005KT M00/M01 A3037 RMK A01 T10031007  RH  097%=      5-min Rain = 0
KME1 091414Z 32005KT M00/M01 A3037 RMK A01 T10031007  RH  097%=      5-min Rain = 0
KME1 091415Z 33005KT M00/M01 A3037 RMK A01 T10021007  RH  097%=      5-min Rain = 0
KME1 091416Z 33005KT M00/M01 A3037 RMK A01 T10011006  RH  097%=      5-min Rain = 0
KME1 091417Z 33005KT M00/M01 A3037 RMK A01 T10011006  RH  096%=      5-min Rain = 0
KME1 091418Z 33005KT 00/01 A3037 RMK A01 T00-000-6  RH  096%=      5-min Rain = 0
KME1 091419Z 34005KT 00/01 A3037 RMK A01 T000000-5  RH  096%=      5-min Rain = 0
KME1 091420Z 34005KT 00/M01 A3037 RMK A01 T00011005  RH  096%=      5-min Rain = 0
KME1 091421Z 34005KT 00/M01 A3037 RMK A01 T00011005  RH  096%=      5-min Rain = 0
KME1 091422Z 34005KT 00/M01 A3037 RMK A01 T00021005  RH  096%=      5-min Rain = 0
KME1 091423Z 34006KT 00/M00 A3037 RMK A01 T00021004  RH  095%=      5-min Rain = 0
KME1 091424Z 34006KT 00/M00 A3037 RMK A01 T00031004  RH  095%=      5-min Rain = 0
KME1 091425Z 34006KT 00/M00 A3038 RMK A01 T00031004  RH  095%=      5-min Rain = 0
KME1 091426Z 34006KT 00/M00 A3038 RMK A01 T00041004  RH  095%=      5-min Rain = 0
KME1 091427Z 34005KT 00/M00 A3038 RMK A01 T00041004  RH  094%=      5-min Rain = 0
KME1 091428Z 33006KT 01/M00 A3038 RMK A01 T00051004  RH  094%=      5-min Rain = 0
KME1 091429Z 34006KT 01/M00 A3038 RMK A01 T00051004  RH  094%=      5-min Rain = 0
KME1 091430Z 33007KT 01/M00 A3038 RMK A01 T00061003  RH  094%=      5-min Rain = 0
KME1 091431Z 33007KT 01/M00 A3038 RMK A01 T00061003  RH  094%=      5-min Rain = 0
KME1 091432Z 33006KT 01/M00 A3038 RMK A01 T00061003  RH  094%=      5-min Rain = 0
KME1 091433Z 34006KT 01/M00 A3038 RMK A01 T00061003  RH  093%=      5-min Rain = 0
KME1 091434Z 33007KT 01/M00 A3038 RMK A01 T00071003  RH  093%=      5-min Rain = 0
KME1 091435Z 34007KT 01/M00 A3038 RMK A01 T00071003  RH  093%=      5-min Rain = 0
KME1 091436Z 34006KT 01/M00 A3038 RMK A01 T00081003  RH  093%=      5-min Rain = 0
KME1 091437Z 34006KT 01/M00 A3038 RMK A01 T00081002  RH  093%=      5-min Rain = 0
KME1 091438Z 34006KT 01/M00 A3038 RMK A01 T00091001  RH  093%=      5-min Rain = 0
KME1 091439Z 34007KT 01/M00 A3038 RMK A01 T00091002  RH  092%=      5-min Rain = 0
KME1 091440Z 34009KT 01/M00 A3038 RMK A01 T00101002  RH  092%=      5-min Rain = 0
KME1 091441Z 34008KT 01/M00 A3038 RMK A01 T00101002  RH  091%=      5-min Rain = 0
KME1 091442Z 34008KT 01/M00 A3038 RMK A01 T00111002  RH  091%=      5-min Rain = 0
KME1 091443Z 34007KT 01/M00 A3038 RMK A01 T00111003  RH  091%=      5-min Rain = 0
KME1 091444Z 35006KT 01/M00 A3038 RMK A01 T00121002  RH  091%=      5-min Rain = 0
KME1 091445Z 34007KT 01/M00 A3038 RMK A01 T00121001  RH  091%=      5-min Rain = 0
KME1 091446Z 35007KT 01/M00 A3038 RMK A01 T00131001  RH  090%=      5-min Rain = 0
KME1 091447Z 34007KT 01/M00 A3039 RMK A01 T00131002  RH  090%=      5-min Rain = 0
KME1 091448Z 34008KT 01/M00 A3039 RMK A01 T00131002  RH  090%=      5-min Rain = 0
KME1 091449Z 34008KT 01/M00 A3039 RMK A01 T00141002  RH  089%=      5-min Rain = 0
KME1 091450Z 34009KT 01/M00 A3039 RMK A01 T00141002  RH  089%=      5-min Rain = 0
KME1 091451Z 34006KT 01/M00 A3039 RMK A01 T00141003  RH  088%=      5-min Rain = 0
KME1 091452Z 34009KT 02/M00 A3039 RMK A01 T00151003  RH  088%=      5-min Rain = 0
KME1 091453Z 35007KT 02/M00 A3039 RMK A01 T00151004  RH  087%=      5-min Rain = 0
KME1 091454Z 35008KT 02/M00 A3039 RMK A01 T00151004  RH  087%=      5-min Rain = 0
KME1 091455Z 35006KT 02/M00 A3039 RMK A01 T00161003  RH  087%=      5-min Rain = 0
KME1 091456Z 35007KT 02/M00 A3039 RMK A01 T00171002  RH  088%=      5-min Rain = 0
KME1 091457Z 35007KT 02/M00 A3039 RMK A01 T00171002  RH  087%=      5-min Rain = 0
KME1 091458Z 34007KT 02/M00 A3039 RMK A01 T00171003  RH  086%=      5-min Rain = 0
KME1 091459Z 35006KT 02/M00 A3039 RMK A01 T00181004  RH  086%=      5-min Rain = 0
KME1 091500Z 35006KT 02/M00 A3039 RMK A01 T00191003  RH  086%=      5-min Rain = 0
KME1 091501Z 34006KT 02/M00 A3039 RMK A01 T00191003  RH  086%=      5-min Rain = 0
KME1 091502Z 35006KT 02/M00 A3039 RMK A01 T00201001  RH  086%=      5-min Rain = 0
KME1 091503Z 35006KT 02/M00 A3039 RMK A01 T00211003  RH  084%=      5-min Rain = 0
KME1 091504Z 35005KT 02/M01 A3039 RMK A01 T00201006  RH  083%=      5-min Rain = 0
KME1 091505Z 35005KT 02/M00 A3039 RMK A01 T00211002  RH  085%=      5-min Rain = 0
KME1 091506Z 36006KT 02/M00 A3039 RMK A01 T00221001  RH  085%=      5-min Rain = 0
KME1 091507Z 35006KT 02/M00 A3039 RMK A01 T00221004  RH  083%=      5-min Rain = 0
KME1 091508Z 36006KT 02/M01 A3039 RMK A01 T00221006  RH  082%=      5-min Rain = 0
KME1 091509Z 36007KT 02/M01 A3039 RMK A01 T00221006  RH  082%=      5-min Rain = 0
KME1 091510Z 35008KT 02/M01 A304 RMK A01 T00221006  RH  082%=      5-min Rain = 0
KME1 091511Z 35006KT 02/M01 A304 RMK A01 T00221005  RH  082%=      5-min Rain = 0
KME1 091512Z 35007KT 02/M01 A304 RMK A01 T00221005  RH  082%=      5-min Rain = 0
KME1 091513Z 36006KT 02/M01 A304 RMK A01 T00221007  RH  081%=      5-min Rain = 0
KME1 091514Z 36007KT 02/M01 A304 RMK A01 T00231006  RH  081%=      5-min Rain = 0
KME1 091515Z 36006KT 02/M01 A304 RMK A01 T00231006  RH  081%=      5-min Rain = 0
KME1 091516Z 36007KT 02/M01 A304 RMK A01 T00241006  RH  081%=      5-min Rain = 0
KME1 091517Z 00006KT 02/M01 A304 RMK A01 T00241007  RH  080%=      5-min Rain = 0
KME1 091518Z 36007KT 02/M01 A304 RMK A01 T00241006  RH  080%=      5-min Rain = 0
KME1 091519Z 00007KT 03/M01 A304 RMK A01 T00251007  RH  079%=      5-min Rain = 0
KME1 091520Z 36007KT 03/M01 A304 RMK A01 T00251007  RH  079%=      5-min Rain = 0
KME1 091521Z 36007KT 03/M01 A304 RMK A01 T00251008  RH  079%=      5-min Rain = 0
KME1 091522Z 36006KT 03/M01 A304 RMK A01 T00251009  RH  078%=      5-min Rain = 0
KME1 091523Z 00007KT 03/M01 A304 RMK A01 T00251010  RH  078%=      5-min Rain = 0
KME1 091524Z 00006KT 03/M01 A304 RMK A01 T00251009  RH  078%=      5-min Rain = 0
KME1 091525Z 35005KT 03/M01 A304 RMK A01 T00261008  RH  078%=      5-min Rain = 0
KME1 091526Z 36007KT 03/M01 A304 RMK A01 T00271007  RH  078%=      5-min Rain = 0
KME1 091527Z 36007KT 03/M01 A304 RMK A01 T00281007  RH  078%=      5-min Rain = 0
KME1 091528Z 36008KT 03/M01 A304 RMK A01 T00281010  RH  076%=      5-min Rain = 0
KME1 091529Z 00008KT 03/M01 A304 RMK A01 T00271012  RH  075%=      5-min Rain = 0
KME1 091530Z 00007KT 03/M01 A304 RMK A01 T00271012  RH  075%=      5-min Rain = 0
KME1 091531Z 01007KT 03/M01 A304 RMK A01 T00271010  RH  076%=      5-min Rain = 0
KME1 091532Z 00006KT 03/M01 A304 RMK A01 T00271011  RH  076%=      5-min Rain = 0
KME1 091533Z 00006KT 03/M01 A304 RMK A01 T00281009  RH  076%=      5-min Rain = 0
KME1 091534Z 01006KT 03/M01 A304 RMK A01 T00291006  RH  078%=      5-min Rain = 0
KME1 091535Z 01006KT 03/M01 A3041 RMK A01 T00311005  RH  078%=      5-min Rain = 0
KME1 091536Z 36006KT 03/M01 A3041 RMK A01 T00311008  RH  076%=      5-min Rain = 0
KME1 091537Z 35006KT 03/M01 A3041 RMK A01 T00311008  RH  076%=      5-min Rain = 0
KME1 091538Z 35006KT 03/M01 A3041 RMK A01 T00301011  RH  074%=      5-min Rain = 0
KME1 091539Z 35006KT 03/M01 A3041 RMK A01 T00301010  RH  075%=      5-min Rain = 0
KME1 091540Z 35006KT 03/M01 A3041 RMK A01 T00301009  RH  076%=      5-min Rain = 0
KME1 091541Z 35006KT 03/M01 A3041 RMK A01 T00311008  RH  075%=      5-min Rain = 0
KME1 091542Z 35006KT 03/M01 A3041 RMK A01 T00321007  RH  075%=      5-min Rain = 0
KME1 091543Z 35006KT 03/M01 A3041 RMK A01 T00321009  RH  074%=      5-min Rain = 0
KME1 091544Z 35005KT 03/M01 A3041 RMK A01 T00331009  RH  074%=      5-min Rain = 0
KME1 091545Z 35006KT 03/M01 A3041 RMK A01 T00331008  RH  075%=      5-min Rain = 0
KME1 091546Z 00006KT 03/M01 A3041 RMK A01 T00341008  RH  074%=      5-min Rain = 0
KME1 091547Z 35008KT 03/M01 A3041 RMK A01 T00341008  RH  074%=      5-min Rain = 0
KME1 091548Z 34008KT 03/M01 A3041 RMK A01 T00341010  RH  073%=      5-min Rain = 0
KME1 091549Z 35006KT 03/M01 A3041 RMK A01 T00341010  RH  073%=      5-min Rain = 0
KME1 091550Z 35006KT 03/M01 A3041 RMK A01 T00341010  RH  073%=      5-min Rain = 0
KME1 091551Z 01006KT 04/M01 A3041 RMK A01 T00351011  RH  072%=      5-min Rain = 0
KME1 091552Z 01007KT 04/M01 A3041 RMK A01 T00351011  RH  072%=      5-min Rain = 0
KME1 091553Z 01007KT 04/M01 A3041 RMK A01 T00371008  RH  073%=      5-min Rain = 0
KME1 091554Z 35005KT 04/M01 A3041 RMK A01 T00371010  RH  072%=      5-min Rain = 0
KME1 091555Z 34005KT 04/M01 A3041 RMK A01 T00381006  RH  073%=      5-min Rain = 0
KME1 091556Z 34006KT 04/M01 A3041 RMK A01 T00391007  RH  072%=      5-min Rain = 0
KME1 091557Z 00007KT 04/M01 A3041 RMK A01 T00401007  RH  072%=      5-min Rain = 0
KME1 091558Z 36008KT 04/M01 A3041 RMK A01 T00411007  RH  071%=      5-min Rain = 0
KME1 091559Z 36008KT 04/M01 A3041 RMK A01 T00411010  RH  070%=      5-min Rain = 0
KME1 091600Z 36006KT 04/M01 A3041 RMK A01 T00401011  RH  069%=      5-min Rain = 0
KME1 091601Z 00008KT 04/M01 A3041 RMK A01 T00411010  RH  069%=      5-min Rain = 0
KME1 091602Z 02008KT 04/M01 A3041 RMK A01 T00411011  RH  069%=      5-min Rain = 0
KME1 091603Z 01006KT 04/M01 A3041 RMK A01 T00411012  RH  068%=      5-min Rain = 0
KME1 091604Z 01006KT 04/M01 A3041 RMK A01 T00411010  RH  069%=      5-min Rain = 0
KME1 091605Z 01006KT 04/M01 A3041 RMK A01 T00411011  RH  069%=      5-min Rain = 0
KME1 091606Z 00006KT 04/M01 A3041 RMK A01 T00411012  RH  069%=      5-min Rain = 0
KME1 091607Z 36006KT 04/M01 A3041 RMK A01 T00411012  RH  068%=      5-min Rain = 0
KME1 091608Z 01005KT 04/M01 A3041 RMK A01 T00421007  RH  070%=      5-min Rain = 0
KME1 091609Z 01006KT 04/M01 A3041 RMK A01 T00441006  RH  070%=      5-min Rain = 0
KME1 091610Z 01005KT 05/M01 A3041 RMK A01 T00451009  RH  068%=      5-min Rain = 0
KME1 091611Z 01006KT 05/M01 A3041 RMK A01 T00451008  RH  068%=      5-min Rain = 0
KME1 091612Z 34005KT 05/M01 A3041 RMK A01 T00461011  RH  066%=      5-min Rain = 0
KME1 091613Z 35007KT 05/M01 A3041 RMK A01 T00461008  RH  068%=      5-min Rain = 0
KME1 091614Z 34006KT 05/M01 A3042 RMK A01 T00461009  RH  067%=      5-min Rain = 0
KME1 091615Z 35008KT 05/M01 A3042 RMK A01 T00461008  RH  068%=      5-min Rain = 0
KME1 091616Z 35009KT 05/M01 A3042 RMK A01 T00481014  RH  064%=      5-min Rain = 0
KME1 091617Z 00010KT 05/M02 A3042 RMK A01 T00481015  RH  064%=      5-min Rain = 0
KME1 091618Z 00008KT 05/M02 A3042 RMK A01 T00481018  RH  062%=      5-min Rain = 0
KME1 091619Z 00007KT 05/M02 A3042 RMK A01 T00481017  RH  063%=      5-min Rain = 0
KME1 091620Z 01008KT 05/M02 A3042 RMK A01 T00481016  RH  063%=      5-min Rain = 0
KME1 091621Z 00008KT 05/M02 A3042 RMK A01 T00481017  RH  063%=      5-min Rain = 0
KME1 091622Z 01007KT 05/M02 A3042 RMK A01 T00481018  RH  062%=      5-min Rain = 0
KME1 091623Z 00007KT 05/M02 A3042 RMK A01 T00481017  RH  063%=      5-min Rain = 0
KME1 091624Z 36007KT 05/M02 A3042 RMK A01 T00491018  RH  062%=      5-min Rain = 0
KME1 091625Z 01007KT 05/M02 A3042 RMK A01 T00491019  RH  061%=      5-min Rain = 0
KME1 091626Z 01008KT 05/M02 A3042 RMK A01 T00511020  RH  060%=      5-min Rain = 0
KME1 091627Z 00009KT 05/M02 A3042 RMK A01 T00511023  RH  059%=      5-min Rain = 0
KME1 091628Z 01007KT 05/M02 A3042 RMK A01 T00501024  RH  059%=      5-min Rain = 0
KME1 091629Z 00007KT 05/M02 A3042 RMK A01 T00501024  RH  059%=      5-min Rain = 0
KME1 091630Z 00008KT 05/M03 A3042 RMK A01 T00511025  RH  058%=      5-min Rain = 0
KME1 091631Z 01008KT 05/M03 A3042 RMK A01 T00531026  RH  057%=      5-min Rain = 0
KME1 091632Z 01009KT 05/M03 A3042 RMK A01 T00531027  RH  056%=      5-min Rain = 0
KME1 091633Z 01007KT 05/M03 A3042 RMK A01 T00531027  RH  056%=      5-min Rain = 0
KME1 091634Z 00008KT 05/M03 A3042 RMK A01 T00521033  RH  054%=      5-min Rain = 0
KME1 091635Z 36007KT 05/M03 A3042 RMK A01 T00521033  RH  054%=      5-min Rain = 0
KME1 091636Z 35006KT 05/M03 A3042 RMK A01 T00531027  RH  056%=      5-min Rain = 0
KME1 091637Z 35008KT 06/M03 A3042 RMK A01 T00551030  RH  055%=      5-min Rain = 0
KME1 091638Z 35007KT 05/M03 A3042 RMK A01 T00531034  RH  053%=      5-min Rain = 0
KME1 091639Z 00007KT 05/M03 A3042 RMK A01 T00541030  RH  055%=      5-min Rain = 0
KME1 091640Z 01008KT 06/M03 A3042 RMK A01 T00561028  RH  055%=      5-min Rain = 0
KME1 091641Z 00007KT 06/M03 A3042 RMK A01 T00571029  RH  054%=      5-min Rain = 0
KME1 091642Z 00008KT 06/M03 A3042 RMK A01 T00571034  RH  052%=      5-min Rain = 0
KME1 091643Z 35008KT 06/M03 A3042 RMK A01 T00571034  RH  052%=      5-min Rain = 0
KME1 091644Z 34010KT 06/M04 A3042 RMK A01 T00581037  RH  050%=      5-min Rain = 0
KME1 091645Z 35008KT 06/M04 A3042 RMK A01 T00571039  RH  050%=      5-min Rain = 0
KME1 091646Z 35009KT 06/M04 A3042 RMK A01 T00571039  RH  050%=      5-min Rain = 0
KME1 091647Z 00009KT 06/M04 A3042 RMK A01 T00581035  RH  051%=      5-min Rain = 0
KME1 091648Z 02009KT 06/M04 A3042 RMK A01 T00591037  RH  050%=      5-min Rain = 0
KME1 091649Z 01007KT 06/M04 A3042 RMK A01 T00591039  RH  049%=      5-min Rain = 0
KME1 091650Z 36008KT 06/M04 A3042 RMK A01 T00591040  RH  049%=      5-min Rain = 0
KME1 091651Z 00006KT 06/M04 A3042 RMK A01 T00571043  RH  048%=      5-min Rain = 0
KME1 091652Z 01008KT 06/M04 A3042 RMK A01 T00571038  RH  050%=      5-min Rain = 0
KME1 091653Z 00007KT 06/M03 A3042 RMK A01 T00601031  RH  052%=      5-min Rain = 0
KME1 091654Z 34006KT 06/M04 A3042 RMK A01 T00631035  RH  050%=      5-min Rain = 0
KME1 091655Z 00006KT 06/M04 A3042 RMK A01 T00631039  RH  048%=      5-min Rain = 0
KME1 091656Z 02007KT 06/M04 A3042 RMK A01 T00631038  RH  048%=      5-min Rain = 0
KME1 091657Z 02007KT 06/M04 A3042 RMK A01 T00631037  RH  049%=      5-min Rain = 0
KME1 091658Z 00005KT 06/M04 A3042 RMK A01 T00621036  RH  049%=      5-min Rain = 0
KME1 091659Z 35009KT 06/M04 A3042 RMK A01 T00631035  RH  049%=      5-min Rain = 0
KME1 091700Z 35007KT 06/M04 A3042 RMK A01 T00631041  RH  047%=      5-min Rain = 0
KME1 091701Z 35008KT 06/M04 A3042 RMK A01 T00631035  RH  049%=      5-min Rain = 0
KME1 091702Z 36009KT 07/M04 A3042 RMK A01 T00651042  RH  046%=      5-min Rain = 0
KME1 091703Z 35010KT 06/M04 A3042 RMK A01 T00641044  RH  046%=      5-min Rain = 0
KME1 091704Z 36009KT 06/M05 A3042 RMK A01 T00641046  RH  045%=      5-min Rain = 0
KME1 091705Z 00010KT 06/M04 A3042 RMK A01 T00641043  RH  046%=      5-min Rain = 0
KME1 091706Z 01009KT 07/M04 A3042 RMK A01 T00651043  RH  046%=      5-min Rain = 0
KME1 091707Z 00010KT 07/M04 A3042 RMK A01 T00651044  RH  046%=      5-min Rain = 0
KME1 091708Z 00008KT 07/M05 A3042 RMK A01 T00651047  RH  045%=      5-min Rain = 0
KME1 091709Z 01008KT 07/M05 A3042 RMK A01 T00651048  RH  044%=      5-min Rain = 0
KME1 091710Z 35007KT 07/M05 A3042 RMK A01 T00651045  RH  046%=      5-min Rain = 0
KME1 091711Z 01008KT 07/M05 A3041 RMK A01 T00651048  RH  044%=      5-min Rain = 0
KME1 091712Z 36010KT 07/M05 A3041 RMK A01 T00661048  RH  044%=      5-min Rain = 0
KME1 091713Z 34009KT 07/M05 A3041 RMK A01 T00671050  RH  043%=      5-min Rain = 0
KME1 091714Z 34011KT 07/M05 A3041 RMK A01 T00681053  RH  042%=      5-min Rain = 0
KME1 091715Z 35010KT 07/M06 A3041 RMK A01 T00671061  RH  039%=      5-min Rain = 0
KME1 091716Z 36009KT 07/M06 A3041 RMK A01 T00651062  RH  040%=      5-min Rain = 0
KME1 091717Z 01009KT 07/M05 A3041 RMK A01 T00661054  RH  042%=      5-min Rain = 0
KME1 091718Z 01009KT 07/M06 A3041 RMK A01 T00671057  RH  041%=      5-min Rain = 0
KME1 091719Z 36008KT 07/M06 A3041 RMK A01 T00671055  RH  041%=      5-min Rain = 0
KME1 091720Z 35010KT 07/M06 A3041 RMK A01 T00681056  RH  041%=      5-min Rain = 0
KME1 091721Z 35008G13KT 07/M06 A3041 RMK A01 T00681058  RH  040%=      5-min Rain = 0
KME1 091722Z 34010KT 07/M06 A3041 RMK A01 T00701056  RH  040%=      5-min Rain = 0
KME1 091723Z 35008KT 07/M06 A3041 RMK A01 T00711062  RH  038%=      5-min Rain = 0
KME1 091724Z 00011KT 07/M06 A3041 RMK A01 T00701061  RH  039%=      5-min Rain = 0
KME1 091725Z 00009KT 07/M06 A3041 RMK A01 T00691064  RH  038%=      5-min Rain = 0
KME1 091726Z 35010KT 07/M06 A3041 RMK A01 T00671063  RH  039%=      5-min Rain = 0
KME1 091727Z 00010KT 07/M06 A3041 RMK A01 T00691060  RH  039%=      5-min Rain = 0
KME1 091728Z 36008KT 07/M06 A3041 RMK A01 T00691064  RH  038%=      5-min Rain = 0
KME1 091729Z 01006KT 07/M06 A3041 RMK A01 T00691060  RH  039%=      5-min Rain = 0
KME1 091730Z 01009KT 07/M06 A3041 RMK A01 T00701056  RH  040%=      5-min Rain = 0
KME1 091731Z 00008KT 07/M06 A3041 RMK A01 T00701058  RH  039%=      5-min Rain = 0
KME1 091732Z 35010KT 07/M06 A3041 RMK A01 T00711061  RH  039%=      5-min Rain = 0
KME1 091733Z 35009KT 07/M06 A3041 RMK A01 T00701063  RH  038%=      5-min Rain = 0
KME1 091734Z 34009KT 07/M07 A3041 RMK A01 T00701065  RH  038%=      5-min Rain = 0
KME1 091735Z 00010KT 07/M06 A3041 RMK A01 T00701063  RH  038%=      5-min Rain = 0
KME1 091736Z 02009KT 07/M06 A3041 RMK A01 T00701058  RH  039%=      5-min Rain = 0
KME1 091737Z 02007KT 07/M06 A3041 RMK A01 T00711057  RH  040%=      5-min Rain = 0
KME1 091738Z 03006KT 07/M06 A3041 RMK A01 T00711061  RH  038%=      5-min Rain = 0
KME1 091739Z 03006KT 07/M06 A3041 RMK A01 T00701058  RH  039%=      5-min Rain = 0
KME1 091740Z 03008G13KT 07/M06 A3041 RMK A01 T00711058  RH  039%=      5-min Rain = 0
KME1 091741Z 02009KT 07/M06 A3041 RMK A01 T00721056  RH  040%=      5-min Rain = 0
KME1 091742Z 36008KT 07/M05 A3041 RMK A01 T00741052  RH  040%=      5-min Rain = 0
KME1 091743Z 01011KT 08/M05 A3041 RMK A01 T00761053  RH  040%=      5-min Rain = 0
KME1 091744Z 00010KT 08/M05 A3041 RMK A01 T00761053  RH  040%=      5-min Rain = 0
KME1 091745Z 01007KT 08/M06 A3041 RMK A01 T00751060  RH  038%=      5-min Rain = 0
KME1 091746Z 00008KT 07/M06 A3041 RMK A01 T00721064  RH  037%=      5-min Rain = 0
KME1 091747Z 36009KT 07/M06 A304 RMK A01 T00721060  RH  039%=      5-min Rain = 0
KME1 091748Z 36009KT 07/M06 A304 RMK A01 T00721063  RH  038%=      5-min Rain = 0
KME1 091749Z 00010KT 07/M06 A304 RMK A01 T00721061  RH  038%=      5-min Rain = 0
KME1 091750Z 00011KT 07/M06 A304 RMK A01 T00721060  RH  038%=      5-min Rain = 0
KME1 091751Z 36009KT 07/M06 A304 RMK A01 T00721059  RH  039%=      5-min Rain = 0
KME1 091752Z 00010KT 07/M06 A304 RMK A01 T00731056  RH  039%=      5-min Rain = 0
KME1 091753Z 00010KT 07/M06 A304 RMK A01 T00741060  RH  038%=      5-min Rain = 0
KME1 091754Z 01010KT 07/M05 A304 RMK A01 T00741054  RH  040%=      5-min Rain = 0
KME1 091755Z 01008KT 08/M06 A304 RMK A01 T00751060  RH  038%=      5-min Rain = 0
KME1 091756Z 01008KT 07/M06 A304 RMK A01 T00731064  RH  037%=      5-min Rain = 0
KME1 091757Z 02009KT 07/M06 A304 RMK A01 T00711063  RH  038%=      5-min Rain = 0
KME1 091758Z 03006KT 07/M07 A304 RMK A01 T00701067  RH  037%=      5-min Rain = 0
KME1 091759Z 01005KT 07/M07 A304 RMK A01 T00691066  RH  037%=      5-min Rain = 0
KME1 091800Z 02005KT 07/M06 A304 RMK A01 T00711055  RH  040%=      5-min Rain = 0
KME1 091801Z 36010KT 07/M06 A304 RMK A01 T00741055  RH  040%=      5-min Rain = 0
KME1 091802Z 36011KT 08/M06 A3039 RMK A01 T00751057  RH  038%=      5-min Rain = 0
KME1 091803Z 36008KT 08/M05 A3039 RMK A01 T00751053  RH  040%=      5-min Rain = 0
KME1 091804Z 00009KT 08/M05 A3039 RMK A01 T00771046  RH  041%=      5-min Rain = 0
KME1 091805Z 35008KT 08/M05 A3039 RMK A01 T00781053  RH  039%=      5-min Rain = 0
KME1 091806Z 33008KT 08/M06 A3039 RMK A01 T00761058  RH  038%=      5-min Rain = 0
KME1 091807Z 34009KT 08/M06 A3039 RMK A01 T00761058  RH  038%=      5-min Rain = 0
KME1 091808Z 34007KT 07/M06 A3039 RMK A01 T00741063  RH  037%=      5-min Rain = 0
KME1 091809Z 34006KT 07/M06 A3039 RMK A01 T00741063  RH  037%=      5-min Rain = 0
KME1 091810Z 34009KT 07/M06 A3039 RMK A01 T00731062  RH  038%=      5-min Rain = 0
KME1 091811Z 33009KT 07/M06 A3039 RMK A01 T00731062  RH  038%=      5-min Rain = 0
KME1 091812Z 01009KT 08/M05 A3039 RMK A01 T00751052  RH  040%=      5-min Rain = 0
KME1 091813Z 01007KT 08/M05 A3039 RMK A01 T00771050  RH  040%=      5-min Rain = 0
KME1 091814Z 02006KT 08/M05 A3039 RMK A01 T00781051  RH  039%=      5-min Rain = 0
KME1 091815Z 04006KT 08/M05 A3039 RMK A01 T00771051  RH  040%=      5-min Rain = 0
KME1 091816Z 02009KT 08/M05 A3039 RMK A01 T00771048  RH  041%=      5-min Rain = 0
KME1 091817Z 01008KT 08/M05 A3039 RMK A01 T00761052  RH  040%=      5-min Rain = 0
KME1 091818Z 02006KT 08/M05 A3039 RMK A01 T00751053  RH  040%=      5-min Rain = 0
KME1 091819Z 03008KT 08/M04 A3039 RMK A01 T00771043  RH  042%=      5-min Rain = 0
KME1 091820Z 03007KT 08/M05 A3039 RMK A01 T00781045  RH  042%=      5-min Rain = 0
KME1 091821Z 04007KT 08/M05 A3039 RMK A01 T00781047  RH  041%=      5-min Rain = 0
KME1 091822Z 04004KT 08/M06 A3039 RMK A01 T00761055  RH  039%=      5-min Rain = 0
KME1 091823Z 01008KT 08/M05 A3039 RMK A01 T00751051  RH  041%=      5-min Rain = 0
KME1 091824Z 35007KT 08/M05 A3039 RMK A01 T00761048  RH  041%=      5-min Rain = 0
KME1 091825Z 34007KT 08/M05 A3038 RMK A01 T00781045  RH  041%=      5-min Rain = 0
KME1 091826Z 34008KT 08/M05 A3038 RMK A01 T00781051  RH  040%=      5-min Rain = 0
KME1 091827Z 33008KT 08/M05 A3038 RMK A01 T00771052  RH  039%=      5-min Rain = 0
KME1 091828Z 34007KT 08/M05 A3038 RMK A01 T00781049  RH  040%=      5-min Rain = 0
KME1 091829Z 35007KT 08/M05 A3038 RMK A01 T00791051  RH  039%=      5-min Rain = 0
KME1 091830Z 35009KT 08/M05 A3038 RMK A01 T00791053  RH  039%=      5-min Rain = 0
KME1 091831Z 34008KT 08/M06 A3038 RMK A01 T00791057  RH  038%=      5-min Rain = 0
KME1 091832Z 36009KT 08/M06 A3038 RMK A01 T00781055  RH  038%=      5-min Rain = 0
KME1 091833Z 35010KT 08/M06 A3038 RMK A01 T00781056  RH  038%=      5-min Rain = 0
KME1 091834Z 34009KT 08/M06 A3038 RMK A01 T00781056  RH  038%=      5-min Rain = 0
KME1 091835Z 35008KT 08/M05 A3038 RMK A01 T00781053  RH  039%=      5-min Rain = 0
KME1 091836Z 36007KT 08/M06 A3038 RMK A01 T00781056  RH  038%=      5-min Rain = 0
KME1 091837Z 36009KT 08/M05 A3038 RMK A01 T00791052  RH  039%=      5-min Rain = 0
KME1 091838Z 35008KT 08/M06 A3038 RMK A01 T00781055  RH  038%=      5-min Rain = 0
KME1 091839Z 35006KT 08/M06 A3038 RMK A01 T00781056  RH  038%=      5-min Rain = 0
KME1 091840Z 34005KT 08/M06 A3037 RMK A01 T00771056  RH  038%=      5-min Rain = 0
KME1 091841Z 35007KT 08/M05 A3037 RMK A01 T00781052  RH  039%=      5-min Rain = 0
KME1 091842Z 35008KT 08/M05 A3037 RMK A01 T00811046  RH  040%=      5-min Rain = 0
KME1 091843Z 35007KT 08/M05 A3037 RMK A01 T00821048  RH  039%=      5-min Rain = 0
KME1 091844Z 35007G12KT 08/M05 A3037 RMK A01 T00811053  RH  038%=      5-min Rain = 0
KME1 091845Z 01009KT 08/M05 A3037 RMK A01 T00811049  RH  039%=      5-min Rain = 0
KME1 091846Z 01008KT 08/M05 A3037 RMK A01 T00801050  RH  039%=      5-min Rain = 0
KME1 091847Z 00007KT 08/M05 A3037 RMK A01 T00801048  RH  040%=      5-min Rain = 0
KME1 091848Z 36008KT 08/M05 A3037 RMK A01 T00801050  RH  039%=      5-min Rain = 0
KME1 091849Z 01007KT 08/M05 A3037 RMK A01 T00811045  RH  041%=      5-min Rain = 0
KME1 091850Z 01006KT 08/M04 A3037 RMK A01 T00811043  RH  041%=      5-min Rain = 0
KME1 091851Z 00008KT 08/M04 A3037 RMK A01 T00821041  RH  041%=      5-min Rain = 0
KME1 091852Z 34008KT 08/M04 A3037 RMK A01 T00831043  RH  041%=      5-min Rain = 0
KME1 091853Z 35009KT 08/M05 A3037 RMK A01 T00831045  RH  040%=      5-min Rain = 0
KME1 091854Z 36006KT 08/M05 A3037 RMK A01 T00831045  RH  040%=      5-min Rain = 0
KME1 091855Z 00005KT 08/M05 A3037 RMK A01 T00811049  RH  039%=      5-min Rain = 0
KME1 091856Z 35008KT 08/M05 A3037 RMK A01 T00811045  RH  040%=      5-min Rain = 0
KME1 091857Z 34009KT 08/M05 A3037 RMK A01 T00821045  RH  040%=      5-min Rain = 0
KME1 091858Z 34009KT 08/M04 A3037 RMK A01 T00841042  RH  041%=      5-min Rain = 0
KME1 091859Z 34009KT 09/M04 A3037 RMK A01 T00851044  RH  040%=      5-min Rain = 0
KME1 091900Z 34006KT 09/M04 A3037 RMK A01 T00851043  RH  040%=      5-min Rain = 0
KME1 091901Z 34005KT 09/M04 A3037 RMK A01 T00851044  RH  040%=      5-min Rain = 0
KME1 091902Z 00004KT 09/M05 A3037 RMK A01 T00851048  RH  039%=      5-min Rain = 0
KME1 091903Z 01008KT 09/M04 A3037 RMK A01 T00851043  RH  040%=      5-min Rain = 0
KME1 091904Z 01007KT 09/M05 A3036 RMK A01 T00861048  RH  039%=      5-min Rain = 0
KME1 091905Z 35007KT 09/M05 A3036 RMK A01 T00851052  RH  038%=      5-min Rain = 0
KME1 091906Z 34007KT 08/M05 A3036 RMK A01 T00841054  RH  037%=      5-min Rain = 0
KME1 091907Z 01007KT 09/M05 A3036 RMK A01 T00851049  RH  038%=      5-min Rain = 0
KME1 091908Z 00005KT 09/M05 A3036 RMK A01 T00861051  RH  038%=      5-min Rain = 0
KME1 091909Z 01005KT 09/M06 A3036 RMK A01 T00851058  RH  036%=      5-min Rain = 0
KME1 091910Z 35007KT 08/M06 A3036 RMK A01 T00841055  RH  037%=      5-min Rain = 0
KME1 091911Z 01008KT 09/M05 A3036 RMK A01 T00861047  RH  039%=      5-min Rain = 0
KME1 091912Z 35008KT 09/M05 A3036 RMK A01 T00881049  RH  038%=      5-min Rain = 0
KME1 091913Z 35008KT 09/M05 A3036 RMK A01 T00881052  RH  037%=      5-min Rain = 0
KME1 091914Z 35007KT 09/M05 A3036 RMK A01 T00881052  RH  037%=      5-min Rain = 0
KME1 091915Z 00007KT 09/M06 A3036 RMK A01 T00871058  RH  035%=      5-min Rain = 0
KME1 091916Z 01008KT 09/M06 A3036 RMK A01 T00861056  RH  036%=      5-min Rain = 0
KME1 091917Z 02008KT 09/M06 A3036 RMK A01 T00861055  RH  036%=      5-min Rain = 0
KME1 091918Z 01010KT 09/M05 A3036 RMK A01 T00861053  RH  037%=      5-min Rain = 0
KME1 091919Z 01008KT 09/M05 A3036 RMK A01 T00861053  RH  037%=      5-min Rain = 0
KME1 091920Z 02007KT 09/M06 A3036 RMK A01 T00851058  RH  036%=      5-min Rain = 0
KME1 091921Z 02004KT 08/M06 A3036 RMK A01 T00841059  RH  036%=      5-min Rain = 0
KME1 091922Z 02007KT 09/M05 A3036 RMK A01 T00851053  RH  037%=      5-min Rain = 0
KME1 091923Z 01008KT 09/M05 A3036 RMK A01 T00871045  RH  039%=      5-min Rain = 0
KME1 091924Z 02008KT 09/M05 A3036 RMK A01 T00891048  RH  037%=      5-min Rain = 0
KME1 091925Z 02007KT 09/M05 A3036 RMK A01 T00891052  RH  037%=      5-min Rain = 0
KME1 091926Z 02006KT 09/M05 A3036 RMK A01 T00881054  RH  036%=      5-min Rain = 0
KME1 091927Z 02008KT 09/M05 A3036 RMK A01 T00881053  RH  036%=      5-min Rain = 0
KME1 091928Z 36006KT 09/M05 A3036 RMK A01 T00871054  RH  037%=      5-min Rain = 0
KME1 091929Z 35007KT 09/M05 A3036 RMK A01 T00871054  RH  037%=      5-min Rain = 0
KME1 091930Z 36003KT 09/M05 A3035 RMK A01 T00871053  RH  037%=      5-min Rain = 0
KME1 091931Z 01004KT 09/M05 A3035 RMK A01 T00871054  RH  036%=      5-min Rain = 0
KME1 091932Z 34007KT 09/M05 A3035 RMK A01 T00881052  RH  037%=      5-min Rain = 0
KME1 091933Z 35006KT 09/M05 A3035 RMK A01 T00901053  RH  036%=      5-min Rain = 0
KME1 091934Z 32007KT 09/M05 A3035 RMK A01 T00921052  RH  036%=      5-min Rain = 0
KME1 091935Z 33005KT 09/M06 A3035 RMK A01 T00921062  RH  033%=      5-min Rain = 0
KME1 091936Z 36003KT 09/M07 A3035 RMK A01 T00891066  RH  033%=      5-min Rain = 0
KME1 091937Z 01008KT 09/M06 A3035 RMK A01 T00901056  RH  035%=      5-min Rain = 0
KME1 091938Z 01007KT 09/M06 A3035 RMK A01 T00901057  RH  035%=      5-min Rain = 0
KME1 091939Z 03009KT 09/M06 A3035 RMK A01 T00891057  RH  035%=      5-min Rain = 0
KME1 091940Z 03006KT 09/M05 A3035 RMK A01 T00891050  RH  037%=      5-min Rain = 0
KME1 091941Z 04004KT 09/M06 A3035 RMK A01 T00891056  RH  035%=      5-min Rain = 0
KME1 091942Z 35005KT 09/M06 A3035 RMK A01 T00881058  RH  035%=      5-min Rain = 0
KME1 091943Z 35006KT 09/M06 A3035 RMK A01 T00891056  RH  036%=      5-min Rain = 0
KME1 091944Z 00006KT 09/M06 A3035 RMK A01 T00901058  RH  035%=      5-min Rain = 0
KME1 091945Z 35007KT 09/M05 A3035 RMK A01 T00911050  RH  037%=      5-min Rain = 0
KME1 091946Z 03008KT 09/M05 A3035 RMK A01 T00931049  RH  036%=      5-min Rain = 0
KME1 091947Z 02008KT 09/M05 A3035 RMK A01 T00921052  RH  036%=      5-min Rain = 0
KME1 091948Z 03007KT 09/M06 A3035 RMK A01 T00911055  RH  035%=      5-min Rain = 0
KME1 091949Z 03005KT 09/M05 A3035 RMK A01 T00921045  RH  038%=      5-min Rain = 0
KME1 091950Z 00005KT 09/M05 A3034 RMK A01 T00931047  RH  037%=      5-min Rain = 0
KME1 091951Z 33005KT 09/M05 A3034 RMK A01 T00931054  RH  035%=      5-min Rain = 0
KME1 091952Z 33005KT 09/M06 A3034 RMK A01 T00931060  RH  033%=      5-min Rain = 0
KME1 091953Z 32005KT 09/M06 A3034 RMK A01 T00921063  RH  033%=      5-min Rain = 0
KME1 091954Z 31005KT 09/M06 A3034 RMK A01 T00911063  RH  033%=      5-min Rain = 0
KME1 091955Z 32006KT 09/M06 A3034 RMK A01 T00911062  RH  033%=      5-min Rain = 0
KME1 091956Z 35004KT 09/M06 A3034 RMK A01 T00921059  RH  034%=      5-min Rain = 0
KME1 091957Z 01007KT 09/M06 A3034 RMK A01 T00921058  RH  034%=      5-min Rain = 0
KME1 091958Z 01007KT 09/M05 A3034 RMK A01 T00941050  RH  036%=      5-min Rain = 0
KME1 091959Z 33004KT 09/M06 A3034 RMK A01 T00941057  RH  034%=      5-min Rain = 0
KME1 092000Z 32004KT 09/M06 A3034 RMK A01 T00941060  RH  033%=      5-min Rain = 0
KME1 092001Z 32004KT 09/M06 A3034 RMK A01 T00941055  RH  034%=      5-min Rain = 0
KME1 092002Z 33007KT 10/M05 A3034 RMK A01 T00971052  RH  035%=      5-min Rain = 0
KME1 092003Z 33007KT 10/M06 A3034 RMK A01 T00971060  RH  032%=      5-min Rain = 0
KME1 092004Z 33008KT 09/M06 A3034 RMK A01 T00941063  RH  032%=      5-min Rain = 0
KME1 092005Z 34005KT 09/M06 A3034 RMK A01 T00931063  RH  033%=      5-min Rain = 0
KME1 092006Z 35003KT 09/M06 A3034 RMK A01 T00931059  RH  034%=      5-min Rain = 0
KME1 092007Z 35008KT 09/M06 A3034 RMK A01 T00941058  RH  034%=      5-min Rain = 0
KME1 092008Z 33005KT 09/M06 A3034 RMK A01 T00941063  RH  032%=      5-min Rain = 0
KME1 092009Z 33005KT 09/M07 A3034 RMK A01 T00931069  RH  031%=      5-min Rain = 0
KME1 092010Z 33005KT 09/M07 A3034 RMK A01 T00911069  RH  031%=      5-min Rain = 0
KME1 092011Z 33005KT 09/M07 A3034 RMK A01 T00911070  RH  031%=      5-min Rain = 0
KME1 092012Z 34005KT 09/M07 A3034 RMK A01 T00911069  RH  031%=      5-min Rain = 0
KME1 092013Z 31008KT 09/M06 A3034 RMK A01 T00921063  RH  033%=      5-min Rain = 0
KME1 092014Z 35007KT 10/M06 A3034 RMK A01 T00951058  RH  033%=      5-min Rain = 0
KME1 092015Z 33007KT 10/M05 A3034 RMK A01 T00971053  RH  034%=      5-min Rain = 0
KME1 092016Z 33007KT 10/M06 A3034 RMK A01 T00981057  RH  033%=      5-min Rain = 0
KME1 092017Z 31006KT 10/M06 A3034 RMK A01 T00991056  RH  033%=      5-min Rain = 0
KME1 092018Z 32006KT 10/M05 A3034 RMK A01 T00991053  RH  034%=      5-min Rain = 0
KME1 092019Z 33006KT 10/M06 A3034 RMK A01 T00991062  RH  032%=      5-min Rain = 0
KME1 092020Z 34005KT 10/M06 A3034 RMK A01 T00971063  RH  032%=      5-min Rain = 0
KME1 092021Z 36009KT 10/M06 A3034 RMK A01 T00971058  RH  033%=      5-min Rain = 0
KME1 092022Z 36007KT 10/M06 A3034 RMK A01 T00971060  RH  032%=      5-min Rain = 0
KME1 092023Z 35005KT 10/M06 A3034 RMK A01 T00971064  RH  032%=      5-min Rain = 0
KME1 092024Z 35004KT 10/M07 A3034 RMK A01 T00951070  RH  031%=      5-min Rain = 0
KME1 092025Z 32004KT 09/M07 A3034 RMK A01 T00941069  RH  031%=      5-min Rain = 0
KME1 092026Z 01002KT 09/M06 A3034 RMK A01 T00941064  RH  032%=      5-min Rain = 0
KME1 092027Z 01005KT 10/M05 A3034 RMK A01 T00961052  RH  035%=      5-min Rain = 0
KME1 092028Z 35005KT 10/M06 A3034 RMK A01 T00991055  RH  033%=      5-min Rain = 0
KME1 092029Z 34004KT 10/M06 A3034 RMK A01 T00981064  RH  031%=      5-min Rain = 0
KME1 092030Z 33004KT 10/M06 A3034 RMK A01 T00981058  RH  033%=      5-min Rain = 0
KME1 092031Z 35004KT 10/M06 A3034 RMK A01 T00981061  RH  032%=      5-min Rain = 0
KME1 092032Z 34004KT 10/M06 A3034 RMK A01 T00991060  RH  032%=      5-min Rain = 0
KME1 092033Z 36006KT 10/M06 A3034 RMK A01 T00991056  RH  033%=      5-min Rain = 0
KME1 092034Z 35008KT 10/M06 A3034 RMK A01 T01001055  RH  033%=      5-min Rain = 0
KME1 092035Z 01009KT 10/M05 A3034 RMK A01 T01001053  RH  034%=      5-min Rain = 0
KME1 092036Z 01009KT 10/M05 A3034 RMK A01 T00991052  RH  034%=      5-min Rain = 0
KME1 092037Z 03007KT 10/M05 A3034 RMK A01 T00981053  RH  034%=      5-min Rain = 0
KME1 092038Z 02007KT 10/M05 A3034 RMK A01 T00971052  RH  034%=      5-min Rain = 0
KME1 092039Z 00006KT 10/M05 A3034 RMK A01 T00971054  RH  034%=      5-min Rain = 0
KME1 092040Z 02004KT 10/M06 A3034 RMK A01 T00971060  RH  033%=      5-min Rain = 0
KME1 092041Z 01003KT 10/M06 A3034 RMK A01 T00961060  RH  033%=      5-min Rain = 0
KME1 092042Z 04005KT 10/M06 A3034 RMK A01 T00971058  RH  033%=      5-min Rain = 0
KME1 092043Z 03004KT 10/M06 A3034 RMK A01 T00971061  RH  032%=      5-min Rain = 0
KME1 092044Z 02005KT 10/M05 A3034 RMK A01 T00981052  RH  034%=      5-min Rain = 0
KME1 092045Z 03005KT 10/M06 A3034 RMK A01 T00991056  RH  033%=      5-min Rain = 0
KME1 092046Z 02002KT 10/M06 A3034 RMK A01 T00981057  RH  033%=      5-min Rain = 0
KME1 092047Z 01003G8KT 10/M06 A3034 RMK A01 T00981058  RH  033%=      5-min Rain = 0
KME1 092048Z 35007KT 10/M06 A3034 RMK A01 T00991058  RH  033%=      5-min Rain = 0
KME1 092049Z 35005KT 10/M05 A3034 RMK A01 T01001049  RH  034%=      5-min Rain = 0
KME1 092050Z 34006KT 10/M05 A3034 RMK A01 T01021049  RH  034%=      5-min Rain = 0
KME1 092051Z 01008KT 10/M05 A3034 RMK A01 T01031054  RH  033%=      5-min Rain = 0
KME1 092052Z 01008KT 10/M05 A3034 RMK A01 T01021046  RH  035%=      5-min Rain = 0
KME1 092053Z 01006KT 10/M05 A3034 RMK A01 T01021050  RH  034%=      5-min Rain = 0
KME1 092054Z 35006KT 10/M05 A3034 RMK A01 T01011052  RH  034%=      5-min Rain = 0
KME1 092055Z 36006KT 10/M05 A3034 RMK A01 T01011053  RH  033%=      5-min Rain = 0
KME1 092056Z 34006KT 10/M05 A3034 RMK A01 T01011051  RH  034%=      5-min Rain = 0
KME1 092057Z 33005KT 10/M06 A3034 RMK A01 T01011059  RH  032%=      5-min Rain = 0
KME1 092058Z 33005KT 10/M06 A3034 RMK A01 T01001055  RH  033%=      5-min Rain = 0
KME1 092059Z 36003KT 10/M05 A3034 RMK A01 T01001054  RH  033%=      5-min Rain = 0
KME1 092100Z 03004KT 10/M06 A3034 RMK A01 T01011058  RH  032%=      5-min Rain = 0
KME1 092101Z 03006KT 10/M05 A3034 RMK A01 T01001054  RH  033%=      5-min Rain = 0
KME1 092102Z 02005KT 10/M06 A3034 RMK A01 T01001055  RH  033%=      5-min Rain = 0
KME1 092103Z 01005KT 10/M06 A3034 RMK A01 T00991055  RH  033%=      5-min Rain = 0
KME1 092104Z 33003KT 10/M06 A3034 RMK A01 T00991055  RH  033%=      5-min Rain = 0
KME1 092105Z 33005KT 10/M05 A3034 RMK A01 T01001053  RH  034%=      5-min Rain = 0
KME1 092106Z 31003KT 10/M05 A3034 RMK A01 T01021054  RH  033%=      5-min Rain = 0
KME1 092107Z 32003KT 10/M06 A3034 RMK A01 T01021061  RH  031%=      5-min Rain = 0
KME1 092108Z 32002KT 10/M06 A3034 RMK A01 T01001061  RH  032%=      5-min Rain = 0
KME1 092109Z 01004KT 10/M06 A3034 RMK A01 T01011058  RH  032%=      5-min Rain = 0
KME1 092110Z 00005KT 10/M06 A3034 RMK A01 T01011061  RH  031%=      5-min Rain = 0
KME1 092111Z 35005KT 10/M06 A3034 RMK A01 T00991063  RH  031%=      5-min Rain = 0
KME1 092112Z 35005KT 10/M06 A3034 RMK A01 T00991060  RH  032%=      5-min Rain = 0
KME1 092113Z 35007KT 10/M06 A3034 RMK A01 T00991058  RH  033%=      5-min Rain = 0
KME1 092114Z 36006KT 10/M05 A3034 RMK A01 T01001053  RH  034%=      5-min Rain = 0
KME1 092115Z 01005KT 10/M05 A3034 RMK A01 T01001054  RH  033%=      5-min Rain = 0
KME1 092116Z 01005KT 10/M05 A3034 RMK A01 T01011053  RH  033%=      5-min Rain = 0
KME1 092117Z 35007KT 10/M05 A3033 RMK A01 T01011051  RH  034%=      5-min Rain = 0
KME1 092118Z 36007KT 10/M06 A3033 RMK A01 T01011055  RH  033%=      5-min Rain = 0
KME1 092119Z 34009KT 10/M06 A3033 RMK A01 T01001059  RH  032%=      5-min Rain = 0
KME1 092120Z 35006KT 10/M06 A3033 RMK A01 T00991062  RH  032%=      5-min Rain = 0
KME1 092121Z 35005KT 10/M07 A3033 RMK A01 T00971065  RH  031%=      5-min Rain = 0
KME1 092122Z 35004KT 10/M06 A3033 RMK A01 T00971060  RH  032%=      5-min Rain = 0
KME1 092123Z 03004KT 10/M06 A3033 RMK A01 T00981058  RH  033%=      5-min Rain = 0
KME1 092124Z 01004KT 10/M06 A3033 RMK A01 T00991057  RH  033%=      5-min Rain = 0
KME1 092125Z 01003KT 10/M05 A3033 RMK A01 T01001054  RH  034%=      5-min Rain = 0
KME1 092126Z 02005KT 10/M05 A3033 RMK A01 T01001053  RH  033%=      5-min Rain = 0
KME1 092127Z 01006KT 10/M05 A3033 RMK A01 T01011050  RH  034%=      5-min Rain = 0
KME1 092128Z 01008KT 10/M05 A3033 RMK A01 T01021051  RH  034%=      5-min Rain = 0
KME1 092129Z 02008KT 10/M05 A3033 RMK A01 T01011053  RH  033%=      5-min Rain = 0
KME1 092130Z 00009KT 10/M06 A3033 RMK A01 T00991055  RH  033%=      5-min Rain = 0
KME1 092131Z 01009KT 10/M06 A3033 RMK A01 T00981057  RH  033%=      5-min Rain = 0
KME1 092132Z 36006KT 10/M06 A3033 RMK A01 T00981057  RH  033%=      5-min Rain = 0
KME1 092133Z 01004KT 10/M06 A3033 RMK A01 T00971058  RH  033%=      5-min Rain = 0
KME1 092134Z 36005KT 10/M05 A3033 RMK A01 T00981054  RH  034%=      5-min Rain = 0
KME1 092135Z 00005KT 10/M06 A3033 RMK A01 T00981059  RH  033%=      5-min Rain = 0
KME1 092136Z 02005KT 10/M06 A3033 RMK A01 T00981056  RH  033%=      5-min Rain = 0
KME1 092137Z 02006KT 10/M05 A3033 RMK A01 T00981054  RH  034%=      5-min Rain = 0
KME1 092138Z 01008KT 10/M05 A3033 RMK A01 T00991048  RH  035%=      5-min Rain = 0
KME1 092139Z 00007KT 10/M05 A3033 RMK A01 T01001054  RH  033%=      5-min Rain = 0
KME1 092140Z 35007KT 10/M05 A3033 RMK A01 T01001045  RH  036%=      5-min Rain = 0
KME1 092141Z 34006KT 10/M05 A3033 RMK A01 T01001052  RH  034%=      5-min Rain = 0
KME1 092142Z 33005KT 10/M06 A3033 RMK A01 T01001058  RH  032%=      5-min Rain = 0
KME1 092143Z 34004KT 10/M06 A3033 RMK A01 T00991058  RH  033%=      5-min Rain = 0
KME1 092144Z 35004KT 10/M06 A3033 RMK A01 T00991059  RH  032%=      5-min Rain = 0
KME1 092145Z 03005KT 10/M06 A3033 RMK A01 T00991055  RH  033%=      5-min Rain = 0
KME1 092146Z 03004KT 10/M06 A3033 RMK A01 T00991055  RH  033%=      5-min Rain = 0
KME1 092147Z 02005G10KT 10/M06 A3033 RMK A01 T00991056  RH  033%=      5-min Rain = 0
KME1 092148Z 36008KT 10/M05 A3033 RMK A01 T00991051  RH  034%=      5-min Rain = 0
KME1 092149Z 35009KT 10/M05 A3033 RMK A01 T00991048  RH  035%=      5-min Rain = 0
KME1 092150Z 36007KT 10/M05 A3033 RMK A01 T01001052  RH  034%=      5-min Rain = 0
KME1 092151Z 35008KT 10/M05 A3033 RMK A01 T01001052  RH  034%=      5-min Rain = 0
KME1 092152Z 35007KT 10/M06 A3033 RMK A01 T00991055  RH  033%=      5-min Rain = 0
KME1 092153Z 35007KT 10/M06 A3033 RMK A01 T00991058  RH  033%=      5-min Rain = 0
KME1 092154Z 03007KT 10/M05 A3033 RMK A01 T00981054  RH  034%=      5-min Rain = 0
KME1 092155Z 03007KT 10/M05 A3033 RMK A01 T00981054  RH  034%=      5-min Rain = 0
KME1 092156Z 02004KT 10/M06 A3033 RMK A01 T00971059  RH  033%=      5-min Rain = 0
KME1 092157Z 01003KT 10/M06 A3033 RMK A01 T00951063  RH  032%=      5-min Rain = 0
KME1 092158Z 02003KT 10/M06 A3033 RMK A01 T00951059  RH  033%=      5-min Rain = 0
KME1 092159Z 02004KT 10/M05 A3033 RMK A01 T00961051  RH  035%=      5-min Rain = 0
KME1 092200Z 01006KT 10/M05 A3033 RMK A01 T00981053  RH  034%=      5-min Rain = 0
KME1 092201Z 34007KT 10/M05 A3033 RMK A01 T00991050  RH  035%=      5-min Rain = 0
KME1 092202Z 00007KT 10/M05 A3033 RMK A01 T00991052  RH  034%=      5-min Rain = 0
KME1 092203Z 01007KT 10/M05 A3033 RMK A01 T00991048  RH  035%=      5-min Rain = 0
KME1 092204Z 01005KT 10/M06 A3033 RMK A01 T00981055  RH  033%=      5-min Rain = 0
KME1 092205Z 01004KT 10/M06 A3033 RMK A01 T00971058  RH  033%=      5-min Rain = 0
KME1 092206Z 02006KT 10/M05 A3033 RMK A01 T00971052  RH  035%=      5-min Rain = 0
KME1 092207Z 01006KT 10/M05 A3033 RMK A01 T00981048  RH  035%=      5-min Rain = 0
KME1 092208Z 01006KT 10/M05 A3033 RMK A01 T00981047  RH  036%=      5-min Rain = 0
KME1 092209Z 36007KT 10/M05 A3033 RMK A01 T00981051  RH  034%=      5-min Rain = 0
KME1 092210Z 00006KT 10/M05 A3033 RMK A01 T00981050  RH  035%=      5-min Rain = 0
KME1 092211Z 01006KT 10/M05 A3033 RMK A01 T00981050  RH  035%=      5-min Rain = 0
KME1 092212Z 36005KT 10/M05 A3033 RMK A01 T00991048  RH  035%=      5-min Rain = 0
KME1 092213Z 35004KT 10/M05 A3033 RMK A01 T00991048  RH  035%=      5-min Rain = 0
KME1 092214Z 35006KT 10/M05 A3033 RMK A01 T01001047  RH  035%=      5-min Rain = 0
KME1 092215Z 35008KT 10/M05 A3033 RMK A01 T01001047  RH  035%=      5-min Rain = 0
KME1 092216Z 35009KT 10/M05 A3032 RMK A01 T01001049  RH  035%=      5-min Rain = 0
KME1 092217Z 36006KT 10/M05 A3033 RMK A01 T00991048  RH  035%=      5-min Rain = 0
KME1 092218Z 36007KT 10/M04 A3033 RMK A01 T00991041  RH  037%=      5-min Rain = 0
KME1 092219Z 36008KT 10/M05 A3033 RMK A01 T01001048  RH  035%=      5-min Rain = 0
KME1 092220Z 01009KT 10/M05 A3033 RMK A01 T00991051  RH  034%=      5-min Rain = 0
KME1 092221Z 01008KT 10/M05 A3033 RMK A01 T00971054  RH  034%=      5-min Rain = 0
KME1 092222Z 01008KT 10/M05 A3033 RMK A01 T00961054  RH  034%=      5-min Rain = 0
KME1 092223Z 01008KT 10/M05 A3033 RMK A01 T00961054  RH  034%=      5-min Rain = 0
KME1 092224Z 00008KT 10/M05 A3033 RMK A01 T00961051  RH  035%=      5-min Rain = 0
KME1 092225Z 36007KT 10/M06 A3033 RMK A01 T00951055  RH  034%=      5-min Rain = 0
KME1 092226Z 35005KT 10/M05 A3033 RMK A01 T00951053  RH  035%=      5-min Rain = 0
KME1 092227Z 35006KT 10/M05 A3033 RMK A01 T00961050  RH  036%=      5-min Rain = 0
KME1 092228Z 36005KT 10/M05 A3033 RMK A01 T00961049  RH  036%=      5-min Rain = 0
KME1 092229Z 35007KT 10/M05 A3033 RMK A01 T00971050  RH  035%=      5-min Rain = 0
KME1 092230Z 35008KT 10/M06 A3033 RMK A01 T00971055  RH  034%=      5-min Rain = 0
KME1 092231Z 36008KT 10/M05 A3033 RMK A01 T00971054  RH  034%=      5-min Rain = 0
KME1 092232Z 35007KT 10/M06 A3033 RMK A01 T00961055  RH  034%=      5-min Rain = 0
KME1 092233Z 35006KT 10/M06 A3033 RMK A01 T00961056  RH  034%=      5-min Rain = 0
KME1 092234Z 36006KT 10/M06 A3033 RMK A01 T00961055  RH  034%=      5-min Rain = 0
KME1 092235Z 00006KT 10/M05 A3033 RMK A01 T00961054  RH  034%=      5-min Rain = 0
KME1 092236Z 01006KT 10/M05 A3033 RMK A01 T00961049  RH  036%=      5-min Rain = 0
KME1 092237Z 01007KT 10/M05 A3033 RMK A01 T00961048  RH  036%=      5-min Rain = 0
KME1 092238Z 36005KT 10/M05 A3033 RMK A01 T00951054  RH  034%=      5-min Rain = 0
KME1 092239Z 36005KT 10/M05 A3033 RMK A01 T00951054  RH  035%=      5-min Rain = 0
KME1 092240Z 35007KT 10/M05 A3033 RMK A01 T00951049  RH  036%=      5-min Rain = 0
KME1 092241Z 34006KT 10/M05 A3033 RMK A01 T00951051  RH  035%=      5-min Rain = 0
KME1 092242Z 35004KT 10/M04 A3033 RMK A01 T00961043  RH  037%=      5-min Rain = 0
KME1 092243Z 33006KT 10/M04 A3033 RMK A01 T00961044  RH  037%=      5-min Rain = 0
KME1 092244Z 34006KT 10/M05 A3033 RMK A01 T00971052  RH  035%=      5-min Rain = 0
KME1 092245Z 34006KT 10/M05 A3033 RMK A01 T00961049  RH  035%=      5-min Rain = 0
KME1 092246Z 34007KT 10/M05 A3033 RMK A01 T00961050  RH  035%=      5-min Rain = 0
KME1 092247Z 36007KT 10/M05 A3033 RMK A01 T00951048  RH  036%=      5-min Rain = 0
KME1 092248Z 36007KT 10/M05 A3033 RMK A01 T00951049  RH  036%=      5-min Rain = 0
KME1 092249Z 35006KT 09/M05 A3033 RMK A01 T00941048  RH  036%=      5-min Rain = 0
KME1 092250Z 34006KT 09/M05 A3033 RMK A01 T00941049  RH  036%=      5-min Rain = 0
KME1 092251Z 35007KT 09/M05 A3033 RMK A01 T00931052  RH  035%=      5-min Rain = 0
KME1 092252Z 35007KT 09/M05 A3033 RMK A01 T00931053  RH  035%=      5-min Rain = 0
KME1 092253Z 35006KT 09/M05 A3033 RMK A01 T00931052  RH  036%=      5-min Rain = 0
KME1 092254Z 01006KT 09/M05 A3033 RMK A01 T00921049  RH  036%=      5-min Rain = 0
KME1 092255Z 00007KT 09/M05 A3033 RMK A01 T00911049  RH  037%=      5-min Rain = 0
KME1 092256Z 01006KT 09/M05 A3033 RMK A01 T00911050  RH  037%=      5-min Rain = 0
KME1 092257Z 01006KT 09/M05 A3033 RMK A01 T00911050  RH  037%=      5-min Rain = 0
KME1 092258Z 01007KT 09/M05 A3033 RMK A01 T00901046  RH  038%=      5-min Rain = 0
KME1 092259Z 01008KT 09/M05 A3033 RMK A01 T00891045  RH  038%=      5-min Rain = 0
KME1 092300Z 00007KT 09/M05 A3033 RMK A01 T00891046  RH  038%=      5-min Rain = 0
KME1 092301Z 00006KT 09/M05 A3033 RMK A01 T00881048  RH  038%=      5-min Rain = 0
KME1 092302Z 36007KT 09/M05 A3033 RMK A01 T00881048  RH  038%=      5-min Rain = 0
KME1 092303Z 35007KT 09/M05 A3033 RMK A01 T00881048  RH  038%=      5-min Rain = 0
KME1 092304Z 36007KT 09/M05 A3033 RMK A01 T00881049  RH  038%=      5-min Rain = 0
KME1 092305Z 36006KT 09/M05 A3033 RMK A01 T00871047  RH  038%=      5-min Rain = 0
KME1 092306Z 35005KT 09/M04 A3033 RMK A01 T00871044  RH  039%=      5-min Rain = 0
KME1 092307Z 36006KT 09/M04 A3033 RMK A01 T00871044  RH  039%=      5-min Rain = 0
KME1 092308Z 36007KT 09/M04 A3033 RMK A01 T00861044  RH  039%=      5-min Rain = 0
KME1 092309Z 35006KT 09/M04 A3033 RMK A01 T00861044  RH  040%=      5-min Rain = 0
KME1 092310Z 36005KT 09/M04 A3033 RMK A01 T00851042  RH  040%=      5-min Rain = 0
KME1 092311Z 00006KT 09/M04 A3033 RMK A01 T00851043  RH  040%=      5-min Rain = 0
KME1 092312Z 01007KT 09/M04 A3033 RMK A01 T00851044  RH  040%=      5-min Rain = 0
KME1 092313Z 00007KT 09/M04 A3033 RMK A01 T00851044  RH  040%=      5-min Rain = 0
KME1 092314Z 00007KT 08/M05 A3033 RMK A01 T00841045  RH  040%=      5-min Rain = 0
KME1 092315Z 01006KT 08/M05 A3033 RMK A01 T00841045  RH  040%=      5-min Rain = 0
KME1 092316Z 01006KT 08/M04 A3033 RMK A01 T00831043  RH  041%=      5-min Rain = 0
KME1 092317Z 02006KT 08/M04 A3033 RMK A01 T00831042  RH  041%=      5-min Rain = 0
KME1 092318Z 02005KT 08/M04 A3034 RMK A01 T00821042  RH  041%=      5-min Rain = 0
KME1 092319Z 02005KT 08/M04 A3034 RMK A01 T00811039  RH  042%=      5-min Rain = 0
KME1 092320Z 02005KT 08/M04 A3034 RMK A01 T00801039  RH  043%=      5-min Rain = 0
KME1 092321Z 02004KT 08/M04 A3034 RMK A01 T00801039  RH  043%=      5-min Rain = 0
KME1 092322Z 02004KT 08/M04 A3034 RMK A01 T00791038  RH  043%=      5-min Rain = 0
KME1 092323Z 01004KT 08/M04 A3034 RMK A01 T00781036  RH  044%=      5-min Rain = 0
KME1 092324Z 01004KT 08/M04 A3034 RMK A01 T00771036  RH  045%=      5-min Rain = 0
KME1 092325Z 00005KT 08/M04 A3034 RMK A01 T00761035  RH  045%=      5-min Rain = 0
KME1 092326Z 00005KT 08/M04 A3034 RMK A01 T00751037  RH  045%=      5-min Rain = 0
KME1 092327Z 00005KT 08/M04 A3034 RMK A01 T00751037  RH  045%=      5-min Rain = 0
KME1 092328Z 01005KT 07/M04 A3034 RMK A01 T00741038  RH  045%=      5-min Rain = 0
KME1 092329Z 00005KT 07/M04 A3034 RMK A01 T00731038  RH  045%=      5-min Rain = 0
KME1 092330Z 00006KT 07/M04 A3034 RMK A01 T00721037  RH  046%=      5-min Rain = 0
KME1 092331Z 01005KT 07/M04 A3034 RMK A01 T00721038  RH  046%=      5-min Rain = 0
KME1 092332Z 01005KT 07/M04 A3034 RMK A01 T00711037  RH  046%=      5-min Rain = 0
KME1 092333Z 01005KT 07/M04 A3034 RMK A01 T00701036  RH  047%=      5-min Rain = 0
KME1 092334Z 01004KT 07/M04 A3034 RMK A01 T00691035  RH  048%=      5-min Rain = 0
KME1 092335Z 01004KT 07/M03 A3034 RMK A01 T00681033  RH  049%=      5-min Rain = 0
KME1 092336Z 01005KT 07/M03 A3034 RMK A01 T00661034  RH  049%=      5-min Rain = 0
KME1 092337Z 01004KT 07/M04 A3034 RMK A01 T00651035  RH  049%=      5-min Rain = 0
KME1 092338Z 01005KT 07/M04 A3034 RMK A01 T00651035  RH  049%=      5-min Rain = 0
KME1 092339Z 01005KT 06/M04 A3034 RMK A01 T00641035  RH  049%=      5-min Rain = 0
KME1 092340Z 01005KT 06/M03 A3034 RMK A01 T00631034  RH  050%=      5-min Rain = 0
KME1 092341Z 01005KT 06/M03 A3034 RMK A01 T00631033  RH  050%=      5-min Rain = 0
KME1 092342Z 01005KT 06/M03 A3034 RMK A01 T00621033  RH  051%=      5-min Rain = 0
KME1 092343Z 01005KT 06/M03 A3034 RMK A01 T00611032  RH  051%=      5-min Rain = 0
KME1 092344Z 01005KT 06/M03 A3034 RMK A01 T00601032  RH  052%=      5-min Rain = 0
KME1 092345Z 01005KT 06/M03 A3034 RMK A01 T00591032  RH  052%=      5-min Rain = 0
KME1 092346Z 01005KT 06/M03 A3034 RMK A01 T00591032  RH  052%=      5-min Rain = 0
KME1 092347Z 01005KT 06/M03 A3034 RMK A01 T00581033  RH  052%=      5-min Rain = 0
KME1 092348Z 01005KT 06/M03 A3034 RMK A01 T00581034  RH  052%=      5-min Rain = 0
KME1 092349Z 01005KT 06/M03 A3034 RMK A01 T00571034  RH  052%=      5-min Rain = 0
KME1 092350Z 01004KT 06/M03 A3034 RMK A01 T00571034  RH  052%=      5-min Rain = 0
KME1 092351Z 00004KT 06/M03 A3035 RMK A01 T00561034  RH  052%=      5-min Rain = 0
KME1 092352Z 00004KT 06/M04 A3035 RMK A01 T00551036  RH  052%=      5-min Rain = 0
KME1 092353Z 00004KT 06/M04 A3035 RMK A01 T00551036  RH  052%=      5-min Rain = 0
KME1 092354Z 00004KT 06/M04 A3035 RMK A01 T00551037  RH  052%=      5-min Rain = 0
KME1 092355Z 00004KT 06/M04 A3035 RMK A01 T00551037  RH  052%=      5-min Rain = 0
KME1 092356Z 00004KT 05/M04 A3035 RMK A01 T00541037  RH  052%=      5-min Rain = 0
KME1 092357Z 00004KT 05/M04 A3035 RMK A01 T00541036  RH  052%=      5-min Rain = 0
KME1 092358Z 00005KT 05/M04 A3035 RMK A01 T00531037  RH  052%=      5-min Rain = 0
KME1 092359Z 00005KT 05/M04 A3035 RMK A01 T00531037  RH  052%=      5-min Rain = 0
KME1 100000Z 00005KT 05/M04 A3035 RMK A01 T00521037  RH  053%=      5-min Rain = 0
KME1 100001Z 36004KT 05/M04 A3035 RMK A01 T00521037  RH  053%=      5-min Rain = 0
KME1 100002Z 00004KT 05/M04 A3035 RMK A01 T00511036  RH  053%=      5-min Rain = 0
KME1 100003Z 00004KT 05/M04 A3035 RMK A01 T00511036  RH  053%=      5-min Rain = 0
KME1 100004Z 00004KT 05/M04 A3035 RMK A01 T00501036  RH  054%=      5-min Rain = 0
KME1 100005Z 00004KT 05/M04 A3035 RMK A01 T00501036  RH  054%=      5-min Rain = 0
KME1 100006Z 00003KT 05/M04 A3035 RMK A01 T00491036  RH  054%=      5-min Rain = 0
KME1 100007Z 36003KT 05/M04 A3035 RMK A01 T00491036  RH  054%=      5-min Rain = 0
KME1 100008Z 36003KT 05/M04 A3035 RMK A01 T00481035  RH  055%=      5-min Rain = 0
KME1 100009Z 35003KT 05/M03 A3035 RMK A01 T00481034  RH  055%=      5-min Rain = 0
KME1 100010Z 35003KT 05/M03 A3036 RMK A01 T00471034  RH  056%=      5-min Rain = 0
KME1 100011Z 35003KT 05/M03 A3036 RMK A01 T00461034  RH  056%=      5-min Rain = 0
KME1 100012Z 35003KT 05/M03 A3036 RMK A01 T00451034  RH  056%=      5-min Rain = 0
KME1 100013Z 35004KT 04/M04 A3036 RMK A01 T00441035  RH  056%=      5-min Rain = 0
KME1 100014Z 35004KT 04/M04 A3036 RMK A01 T00441035  RH  056%=      5-min Rain = 0
KME1 100015Z 35004KT 04/M04 A3036 RMK A01 T00431037  RH  056%=      5-min Rain = 0
KME1 100016Z 35004KT 04/M04 A3036 RMK A01 T00431038  RH  056%=      5-min Rain = 0
KME1 100017Z 35004KT 04/M04 A3036 RMK A01 T00431038  RH  056%=      5-min Rain = 0
KME1 100018Z 35005KT 04/M04 A3036 RMK A01 T00431037  RH  056%=      5-min Rain = 0
KME1 100019Z 35005KT 04/M04 A3036 RMK A01 T00431037  RH  056%=      5-min Rain = 0
KME1 100020Z 35005KT 04/M04 A3036 RMK A01 T00431038  RH  056%=      5-min Rain = 0
KME1 100021Z 34005KT 04/M04 A3036 RMK A01 T00431039  RH  055%=      5-min Rain = 0
KME1 100022Z 35005KT 04/M04 A3036 RMK A01 T00431039  RH  056%=      5-min Rain = 0
KME1 100023Z 34005KT 04/M04 A3036 RMK A01 T00431037  RH  056%=      5-min Rain = 0
KME1 100024Z 34005KT 04/M04 A3036 RMK A01 T00421037  RH  056%=      5-min Rain = 0
KME1 100025Z 34005KT 04/M04 A3036 RMK A01 T00401037  RH  057%=      5-min Rain = 0
KME1 100026Z 35005KT 04/M04 A3036 RMK A01 T00381037  RH  058%=      5-min Rain = 0
KME1 100027Z 35005KT 04/M04 A3036 RMK A01 T00381037  RH  058%=      5-min Rain = 0
KME1 100028Z 35005KT 04/M04 A3036 RMK A01 T00361036  RH  059%=      5-min Rain = 0
KME1 100029Z 35005KT 04/M04 A3036 RMK A01 T00361036  RH  060%=      5-min Rain = 0
KME1 100030Z 35005KT 04/M04 A3036 RMK A01 T00351035  RH  060%=      5-min Rain = 0
KME1 100031Z 35005KT 04/M04 A3036 RMK A01 T00351035  RH  060%=      5-min Rain = 0
KME1 100032Z 35005KT 04/M03 A3036 RMK A01 T00351034  RH  061%=      5-min Rain = 0
KME1 100033Z 35005KT 03/M03 A3036 RMK A01 T00341034  RH  061%=      5-min Rain = 0
KME1 100034Z 34005KT 03/M03 A3036 RMK A01 T00341034  RH  061%=      5-min Rain = 0
KME1 100035Z 35005KT 03/M03 A3036 RMK A01 T00331034  RH  061%=      5-min Rain = 0
KME1 100036Z 34005KT 03/M03 A3036 RMK A01 T00331034  RH  061%=      5-min Rain = 0
KME1 100037Z 34005KT 03/M03 A3036 RMK A01 T00321034  RH  062%=      5-min Rain = 0
KME1 100038Z 34005KT 03/M03 A3036 RMK A01 T00321034  RH  062%=      5-min Rain = 0
KME1 100039Z 34005KT 03/M03 A3036 RMK A01 T00311034  RH  062%=      5-min Rain = 0
KME1 100040Z 34005KT 03/M04 A3036 RMK A01 T00311035  RH  062%=      5-min Rain = 0
KME1 100041Z 34005KT 03/M04 A3036 RMK A01 T00301035  RH  062%=      5-min Rain = 0
KME1 100042Z 34005KT 03/M04 A3036 RMK A01 T00301035  RH  062%=      5-min Rain = 0
KME1 100043Z 34005KT 03/M04 A3036 RMK A01 T00301035  RH  063%=      5-min Rain = 0
KME1 100044Z 34005KT 03/M03 A3036 RMK A01 T00301034  RH  063%=      5-min Rain = 0
KME1 100045Z 34005KT 03/M03 A3036 RMK A01 T00291033  RH  064%=      5-min Rain = 0
KME1 100046Z 34005KT 03/M03 A3036 RMK A01 T00281033  RH  064%=      5-min Rain = 0
KME1 100047Z 34005KT 03/M03 A3036 RMK A01 T00271033  RH  065%=      5-min Rain = 0
KME1 100048Z 34005KT 03/M03 A3036 RMK A01 T00261034  RH  065%=      5-min Rain = 0
KME1 100049Z 34005KT 03/M03 A3036 RMK A01 T00251033  RH  065%=      5-min Rain = 0
KME1 100050Z 34005KT 02/M03 A3036 RMK A01 T00241033  RH  066%=      5-min Rain = 0
KME1 100051Z 34005KT 02/M03 A3036 RMK A01 T00241034  RH  066%=      5-min Rain = 0
KME1 100052Z 34004KT 02/M03 A3036 RMK A01 T00231034  RH  066%=      5-min Rain = 0
KME1 100053Z 34004KT 02/M03 A3036 RMK A01 T00231033  RH  067%=      5-min Rain = 0
KME1 100054Z 34004KT 02/M03 A3036 RMK A01 T00221033  RH  067%=      5-min Rain = 0
KME1 100055Z 34004KT 02/M03 A3036 RMK A01 T00221032  RH  067%=      5-min Rain = 0
KME1 100056Z 34004KT 02/M03 A3036 RMK A01 T00221032  RH  067%=      5-min Rain = 0
KME1 100057Z 34004KT 02/M03 A3036 RMK A01 T00221032  RH  068%=      5-min Rain = 0
KME1 100058Z 34004KT 02/M03 A3036 RMK A01 T00211031  RH  068%=      5-min Rain = 0
KME1 100059Z 34004KT 02/M03 A3037 RMK A01 T00211032  RH  068%=      5-min Rain = 0
KME1 100100Z 34005KT 02/M03 A3037 RMK A01 T00211032  RH  068%=      5-min Rain = 0
KME1 100101Z 34005KT 02/M03 A3037 RMK A01 T00211033  RH  068%=      5-min Rain = 0
KME1 100102Z 34004KT 02/M03 A3037 RMK A01 T00211034  RH  067%=      5-min Rain = 0
KME1 100103Z 35005KT 02/M04 A3037 RMK A01 T00201035  RH  067%=      5-min Rain = 0
KME1 100104Z 34004KT 02/M04 A3037 RMK A01 T00201035  RH  067%=      5-min Rain = 0
KME1 100105Z 33003KT 02/M03 A3037 RMK A01 T00201034  RH  068%=      5-min Rain = 0
KME1 100106Z 32003KT 02/M03 A3037 RMK A01 T00191031  RH  069%=      5-min Rain = 0
KME1 100107Z 30001KT 02/M03 A3037 RMK A01 T00181030  RH  070%=      5-min Rain = 0
KME1 100108Z 32002KT 02/M03 A3037 RMK A01 T00171031  RH  070%=      5-min Rain = 0
KME1 100109Z 32002KT 02/M03 A3037 RMK A01 T00171032  RH  070%=      5-min Rain = 0
KME1 100110Z 32002KT 02/M03 A3037 RMK A01 T00171032  RH  070%=      5-min Rain = 0
KME1 100111Z 32003KT 02/M03 A3037 RMK A01 T00171032  RH  070%=      5-min Rain = 0
KME1 100112Z 32003KT 02/M03 A3037 RMK A01 T00171033  RH  069%=      5-min Rain = 0
KME1 100113Z 33003KT 02/M03 A3037 RMK A01 T00171033  RH  069%=      5-min Rain = 0
KME1 100114Z 33004KT 02/M03 A3037 RMK A01 T00171034  RH  069%=      5-min Rain = 0
KME1 100115Z 34004KT 02/M03 A3037 RMK A01 T00181034  RH  069%=      5-min Rain = 0
KME1 100116Z 34005KT 02/M04 A3037 RMK A01 T00181035  RH  068%=      5-min Rain = 0
KME1 100117Z 34005KT 02/M04 A3037 RMK A01 T00181035  RH  068%=      5-min Rain = 0
KME1 100118Z 34005KT 02/M04 A3037 RMK A01 T00181035  RH  068%=      5-min Rain = 0
KME1 100119Z 34005KT 02/M04 A3037 RMK A01 T00181036  RH  067%=      5-min Rain = 0
KME1 100120Z 34005KT 02/M04 A3037 RMK A01 T00181037  RH  067%=      5-min Rain = 0
KME1 100121Z 34005KT 02/M04 A3037 RMK A01 T00191038  RH  066%=      5-min Rain = 0
KME1 100122Z 33004KT 02/M04 A3037 RMK A01 T00201037  RH  066%=      5-min Rain = 0
KME1 100123Z 33004KT 02/M04 A3037 RMK A01 T00191038  RH  066%=      5-min Rain = 0
KME1 100124Z 33004KT 02/M04 A3037 RMK A01 T00191037  RH  066%=      5-min Rain = 0
KME1 100125Z 32003KT 02/M04 A3037 RMK A01 T00191037  RH  066%=      5-min Rain = 0
KME1 100126Z 32002KT 02/M03 A3037 RMK A01 T00191034  RH  068%=      5-min Rain = 0
KME1 100127Z 31001KT 02/M03 A3037 RMK A01 T00181032  RH  069%=      5-min Rain = 0
KME1 100128Z 32000KT 02/M03 A3037 RMK A01 T00161030  RH  071%=      5-min Rain = 0
KME1 100129Z 33001KT 02/M03 A3037 RMK A01 T00151028  RH  073%=      5-min Rain = 0
KME1 100130Z 32000KT 01/M03 A3037 RMK A01 T00141027  RH  074%=      5-min Rain = 0
KME1 100131Z 32000KT 01/M03 A3038 RMK A01 T00131027  RH  075%=      5-min Rain = 0
KME1 100132Z 04000KT 01/M03 A3038 RMK A01 T00121028  RH  075%=      5-min Rain = 0
KME1 100133Z 02000KT 01/M03 A3038 RMK A01 T00101031  RH  074%=      5-min Rain = 0
KME1 100134Z 34001KT 01/M03 A3038 RMK A01 T00101034  RH  073%=      5-min Rain = 0
KME1 100135Z 34002KT 01/M03 A3038 RMK A01 T00091034  RH  073%=      5-min Rain = 0
KME1 100136Z 33002KT 01/M04 A3038 RMK A01 T00091036  RH  072%=      5-min Rain = 0
KME1 100137Z 34002KT 01/M04 A3038 RMK A01 T00101037  RH  071%=      5-min Rain = 0
KME1 100138Z 34002KT 01/M04 A3038 RMK A01 T00131037  RH  070%=      5-min Rain = 0
KME1 100139Z 33002KT 02/M04 A3038 RMK A01 T00151038  RH  068%=      5-min Rain = 0
KME1 100140Z 34003KT 02/M04 A3038 RMK A01 T00161039  RH  067%=      5-min Rain = 0
KME1 100141Z 34003KT 02/M04 A3038 RMK A01 T00181038  RH  067%=      5-min Rain = 0
KME1 100142Z 34003KT 02/M04 A3038 RMK A01 T00181038  RH  067%=      5-min Rain = 0
KME1 100143Z 34003KT 02/M04 A3038 RMK A01 T00171037  RH  067%=      5-min Rain = 0
KME1 100144Z 34003KT 02/M04 A3038 RMK A01 T00161036  RH  068%=      5-min Rain = 0
KME1 100145Z 34003KT 02/M04 A3038 RMK A01 T00151035  RH  069%=      5-min Rain = 0
KME1 100146Z 34003KT 01/M04 A3038 RMK A01 T00141036  RH  070%=      5-min Rain = 0
KME1 100147Z 34003KT 01/M04 A3038 RMK A01 T00131035  RH  070%=      5-min Rain = 0
KME1 100148Z 34004KT 01/M04 A3038 RMK A01 T00121036  RH  070%=      5-min Rain = 0
KME1 100149Z 34004KT 01/M04 A3038 RMK A01 T00111036  RH  070%=      5-min Rain = 0
KME1 100150Z 34004KT 01/M04 A3038 RMK A01 T00111036  RH  071%=      5-min Rain = 0
KME1 100151Z 34003KT 01/M03 A3038 RMK A01 T00101034  RH  072%=      5-min Rain = 0
KME1 100152Z 34003KT 01/M03 A3038 RMK A01 T00091032  RH  074%=      5-min Rain = 0
KME1 100153Z 33003KT 01/M03 A3038 RMK A01 T00081032  RH  075%=      5-min Rain = 0
KME1 100154Z 34003KT 01/M03 A3038 RMK A01 T00071032  RH  075%=      5-min Rain = 0
KME1 100155Z 34003KT 01/M03 A3038 RMK A01 T00061033  RH  075%=      5-min Rain = 0
KME1 100156Z 34003KT 01/M03 A3038 RMK A01 T00061034  RH  074%=      5-min Rain = 0
KME1 100157Z 34003KT 01/M04 A3038 RMK A01 T00061035  RH  074%=      5-min Rain = 0
KME1 100158Z 33003KT 01/M04 A3038 RMK A01 T00061036  RH  074%=      5-min Rain = 0
KME1 100159Z 33002KT 01/M03 A3038 RMK A01 T00061034  RH  075%=      5-min Rain = 0
KME1 100200Z 33002KT 01/M03 A3038 RMK A01 T00061034  RH  075%=      5-min Rain = 0
KME1 100201Z 34002KT 01/M03 A3038 RMK A01 T00061034  RH  074%=      5-min Rain = 0
KME1 100202Z 34000KT 01/M04 A3038 RMK A01 T00061035  RH  074%=      5-min Rain = 0
KME1 100203Z 34001KT 01/M03 A3038 RMK A01 T00071034  RH  074%=      5-min Rain = 0
KME1 100204Z 34001KT 01/M03 A3038 RMK A01 T00071033  RH  075%=      5-min Rain = 0
KME1 100205Z 33001KT 01/M03 A3038 RMK A01 T00071034  RH  074%=      5-min Rain = 0
KME1 100206Z 34000KT 01/M03 A3038 RMK A01 T00081034  RH  073%=      5-min Rain = 0
KME1 100207Z 34000KT 01/M03 A3038 RMK A01 T00081034  RH  073%=      5-min Rain = 0
KME1 100208Z 00000KT 01/M03 A3038 RMK A01 T00081034  RH  073%=      5-min Rain = 0
KME1 100209Z 32000KT 01/M04 A3038 RMK A01 T00081035  RH  073%=      5-min Rain = 0
KME1 100210Z 32001KT 01/M04 A3038 RMK A01 T00071036  RH  073%=      5-min Rain = 0
KME1 100211Z 33000KT 01/M04 A3038 RMK A01 T00061037  RH  073%=      5-min Rain = 0
KME1 100212Z 00000KT 01/M04 A3038 RMK A01 T00061038  RH  072%=      5-min Rain = 0
KME1 100213Z 32000KT 01/M04 A3038 RMK A01 T00071038  RH  072%=      5-min Rain = 0
KME1 100214Z 32000KT 01/M04 A3038 RMK A01 T00081038  RH  071%=      5-min Rain = 0
KME1 100215Z 00000KT 01/M04 A3038 RMK A01 T00081039  RH  071%=      5-min Rain = 0
KME1 100216Z 32000KT 01/M04 A3038 RMK A01 T00081038  RH  072%=      5-min Rain = 0
KME1 100217Z 29000KT 01/M04 A3038 RMK A01 T00081037  RH  072%=      5-min Rain = 0
KME1 100218Z 30000KT 01/M04 A3038 RMK A01 T00071037  RH  072%=      5-min Rain = 0
KME1 100219Z 00000KT 01/M04 A3038 RMK A01 T00071038  RH  072%=      5-min Rain = 0
KME1 100220Z 00000KT 01/M04 A3038 RMK A01 T00071038  RH  072%=      5-min Rain = 0
KME1 100221Z 24000KT 01/M04 A3038 RMK A01 T00071037  RH  072%=      5-min Rain = 0
KME1 100222Z 23000KT 01/M04 A3038 RMK A01 T00071035  RH  073%=      5-min Rain = 0
KME1 100223Z 22000KT 01/M04 A3038 RMK A01 T00071036  RH  073%=      5-min Rain = 0
KME1 100224Z 22000KT 01/M04 A3038 RMK A01 T00061039  RH  071%=      5-min Rain = 0
KME1 100225Z 00000KT 01/M04 A3038 RMK A01 T00061041  RH  071%=      5-min Rain = 0
KME1 100226Z 00000KT 01/M04 A3038 RMK A01 T00061040  RH  071%=      5-min Rain = 0
KME1 100227Z 00000KT 01/M04 A3038 RMK A01 T00061041  RH  071%=      5-min Rain = 0
KME1 100228Z 00000KT 01/M04 A3038 RMK A01 T00061040  RH  071%=      5-min Rain = 0
KME1 100229Z 22000KT 01/M04 A3038 RMK A01 T00051037  RH  074%=      5-min Rain = 0
KME1 100230Z 22000KT 00/M04 A3038 RMK A01 T00031039  RH  073%=      5-min Rain = 0
KME1 100231Z 22000KT 00/M04 A3038 RMK A01 T00031041  RH  072%=      5-min Rain = 0
KME1 100232Z 35000KT 01/M04 A3039 RMK A01 T00051043  RH  070%=      5-min Rain = 0
KME1 100233Z 00000KT 01/M04 A3039 RMK A01 T00071042  RH  069%=      5-min Rain = 0
KME1 100234Z 00000KT 01/M04 A3039 RMK A01 T00081042  RH  069%=      5-min Rain = 0
KME1 100235Z 00000KT 01/M04 A3039 RMK A01 T00081042  RH  069%=      5-min Rain = 0
KME1 100236Z 00000KT 01/M04 A3039 RMK A01 T00081043  RH  069%=      5-min Rain = 0
KME1 100237Z 29000KT 01/M04 A3039 RMK A01 T00081043  RH  068%=      5-min Rain = 0
KME1 100238Z 00000KT 01/M04 A3039 RMK A01 T00081044  RH  068%=      5-min Rain = 0
KME1 100239Z 34000KT 01/M04 A3039 RMK A01 T00081044  RH  068%=      5-min Rain = 0
KME1 100240Z 35001KT 01/M04 A3039 RMK A01 T00071044  RH  068%=      5-min Rain = 0
KME1 100241Z 33000KT 01/M04 A3039 RMK A01 T00071044  RH  069%=      5-min Rain = 0
KME1 100242Z 30000KT 01/M04 A3039 RMK A01 T00071042  RH  069%=      5-min Rain = 0
KME1 100243Z 30000KT 01/M04 A3039 RMK A01 T00051040  RH  072%=      5-min Rain = 0
KME1 100244Z 30001KT 00/M04 A3039 RMK A01 T00021038  RH  074%=      5-min Rain = 0
KME1 100245Z 30000KT M00/M04 A3039 RMK A01 T10011038  RH  076%=      5-min Rain = 0
KME1 100246Z 27001KT M00/M04 A3039 RMK A01 T10031038  RH  078%=      5-min Rain = 0
KME1 100247Z 26001KT M01/M04 A3039 RMK A01 T10061037  RH  079%=      5-min Rain = 0
KME1 100248Z 26001KT M01/M04 A3039 RMK A01 T10071037  RH  080%=      5-min Rain = 0
KME1 100249Z 29001KT M01/M04 A3039 RMK A01 T10071038  RH  079%=      5-min Rain = 0
KME1 100250Z 30002KT M01/M04 A3039 RMK A01 T10061039  RH  078%=      5-min Rain = 0
KME1 100251Z 30001KT M01/M04 A3039 RMK A01 T10061041  RH  077%=      5-min Rain = 0
KME1 100252Z 31002KT M01/M04 A3039 RMK A01 T10051041  RH  077%=      5-min Rain = 0
KME1 100253Z 31001KT M01/M04 A3039 RMK A01 T10051041  RH  077%=      5-min Rain = 0
KME1 100254Z 31001KT M01/M04 A304 RMK A01 T10051039  RH  078%=      5-min Rain = 0
KME1 100255Z 31001KT M01/M04 A304 RMK A01 T10051038  RH  079%=      5-min Rain = 0
KME1 100256Z 31001KT M01/M04 A304 RMK A01 T10061037  RH  080%=      5-min Rain = 0
KME1 100257Z 32001KT M01/M04 A304 RMK A01 T10071036  RH  080%=      5-min Rain = 0
KME1 100258Z 32001KT M01/M04 A304 RMK A01 T10081037  RH  081%=      5-min Rain = 0
KME1 100259Z 33001KT M01/M04 A304 RMK A01 T10091037  RH  081%=      5-min Rain = 0
KME1 100300Z 33001KT M01/M04 A304 RMK A01 T10091037  RH  082%=      5-min Rain = 0
KME1 100301Z 32001KT M01/M04 A304 RMK A01 T10091036  RH  082%=      5-min Rain = 0
KME1 100302Z 32001KT M01/M04 A304 RMK A01 T10101036  RH  083%=      5-min Rain = 0
KME1 100303Z 32000KT M01/M04 A304 RMK A01 T10111035  RH  083%=      5-min Rain = 0
KME1 100304Z 00000KT M01/M04 A304 RMK A01 T10111035  RH  084%=      5-min Rain = 0
KME1 100305Z 00000KT M01/M04 A304 RMK A01 T10111036  RH  083%=      5-min Rain = 0
KME1 100306Z 00000KT M01/M04 A304 RMK A01 T10111037  RH  083%=      5-min Rain = 0
KME1 100307Z 00000KT M01/M04 A304 RMK A01 T10111037  RH  082%=      5-min Rain = 0
KME1 100308Z 00000KT M01/M04 A304 RMK A01 T10101036  RH  083%=      5-min Rain = 0
KME1 100309Z 00000KT M01/M04 A304 RMK A01 T10101036  RH  083%=      5-min Rain = 0
KME1 100310Z 00000KT M01/M04 A304 RMK A01 T10101036  RH  083%=      5-min Rain = 0
KME1 100311Z 00000KT M01/M04 A304 RMK A01 T10111036  RH  083%=      5-min Rain = 0
KME1 100312Z 00000KT M01/M04 A304 RMK A01 T10111036  RH  083%=      5-min Rain = 0
KME1 100313Z 00000KT M01/M04 A304 RMK A01 T10111037  RH  083%=      5-min Rain = 0
KME1 100314Z 28000KT M01/M04 A304 RMK A01 T10111036  RH  083%=      5-min Rain = 0
KME1 100315Z 28000KT M01/M04 A304 RMK A01 T10111037  RH  082%=      5-min Rain = 0
KME1 100316Z 00000KT M01/M04 A304 RMK A01 T10101037  RH  082%=      5-min Rain = 0
KME1 100317Z 00000KT M01/M04 A304 RMK A01 T10101038  RH  082%=      5-min Rain = 0
KME1 100318Z 00000KT M01/M04 A304 RMK A01 T10111037  RH  082%=      5-min Rain = 0
KME1 100319Z 00000KT M01/M04 A304 RMK A01 T10111036  RH  083%=      5-min Rain = 0
KME1 100320Z 00000KT M01/M04 A304 RMK A01 T10121036  RH  084%=      5-min Rain = 0
KME1 100321Z 00000KT M01/M04 A304 RMK A01 T10131036  RH  085%=      5-min Rain = 0
KME1 100322Z 00000KT M01/M04 A304 RMK A01 T10131036  RH  084%=      5-min Rain = 0
KME1 100323Z 20000KT M01/M04 A304 RMK A01 T10131037  RH  084%=      5-min Rain = 0
KME1 100324Z 20000KT M01/M04 A304 RMK A01 T10131037  RH  083%=      5-min Rain = 0
KME1 100325Z 20000KT M01/M04 A304 RMK A01 T10121037  RH  083%=      5-min Rain = 0
KME1 100326Z 20000KT M01/M04 A304 RMK A01 T10121038  RH  083%=      5-min Rain = 0
KME1 100327Z 20000KT M01/M04 A304 RMK A01 T10121037  RH  083%=      5-min Rain = 0
KME1 100328Z 20001KT M01/M04 A304 RMK A01 T10121037  RH  083%=      5-min Rain = 0
KME1 100329Z 20001KT M01/M04 A304 RMK A01 T10111037  RH  083%=      5-min Rain = 0
KME1 100330Z 20001KT M01/M04 A304 RMK A01 T10111037  RH  083%=      5-min Rain = 0
KME1 100331Z 18001KT M01/M04 A304 RMK A01 T10111038  RH  082%=      5-min Rain = 0
KME1 100332Z 18001KT M01/M04 A304 RMK A01 T10121038  RH  082%=      5-min Rain = 0
KME1 100333Z 19002KT M01/M04 A304 RMK A01 T10131038  RH  083%=      5-min Rain = 0
KME1 100334Z 19002KT M01/M04 A304 RMK A01 T10141038  RH  083%=      5-min Rain = 0
KME1 100335Z 19002KT M01/M04 A304 RMK A01 T10141039  RH  084%=      5-min Rain = 0
KME1 100336Z 20002KT M01/M04 A304 RMK A01 T10141039  RH  084%=      5-min Rain = 0
KME1 100337Z 20002KT M01/M04 A304 RMK A01 T10141039  RH  083%=      5-min Rain = 0
KME1 100338Z 20002KT M02/M04 A304 RMK A01 T10151039  RH  084%=      5-min Rain = 0
KME1 100339Z 20002KT M02/M04 A304 RMK A01 T10161039  RH  084%=      5-min Rain = 0
KME1 100340Z 20002KT M02/M04 A304 RMK A01 T10171039  RH  085%=      5-min Rain = 0
KME1 100341Z 20002KT M02/M04 A304 RMK A01 T10191039  RH  086%=      5-min Rain = 0
KME1 100342Z 21001KT M02/M04 A304 RMK A01 T10201038  RH  087%=      5-min Rain = 0
KME1 100343Z 21001KT M02/M04 A304 RMK A01 T10201037  RH  088%=      5-min Rain = 0
KME1 100344Z 21002KT M02/M04 A304 RMK A01 T10201037  RH  088%=      5-min Rain = 0
KME1 100345Z 20002KT M02/M04 A304 RMK A01 T10201037  RH  088%=      5-min Rain = 0
KME1 100346Z 20003KT M02/M04 A304 RMK A01 T10211037  RH  088%=      5-min Rain = 0
KME1 100347Z 20003KT M02/M04 A304 RMK A01 T10211037  RH  088%=      5-min Rain = 0
KME1 100348Z 20004KT M02/M04 A304 RMK A01 T10201037  RH  088%=      5-min Rain = 0
KME1 100349Z 19004KT M02/M04 A304 RMK A01 T10201037  RH  088%=      5-min Rain = 0
KME1 100350Z 20004KT M02/M04 A304 RMK A01 T10201037  RH  088%=      5-min Rain = 0
KME1 100351Z 20004KT M02/M04 A304 RMK A01 T10201037  RH  088%=      5-min Rain = 0
KME1 100352Z 20004KT M02/M04 A304 RMK A01 T10201037  RH  088%=      5-min Rain = 0
KME1 100353Z 21004KT M02/M04 A304 RMK A01 T10211038  RH  088%=      5-min Rain = 0
KME1 100354Z 21003KT M02/M04 A304 RMK A01 T10211038  RH  088%=      5-min Rain = 0
KME1 100355Z 21003KT M02/M04 A304 RMK A01 T10211038  RH  088%=      5-min Rain = 0
KME1 100356Z 21003KT M02/M04 A304 RMK A01 T10211038  RH  089%=      5-min Rain = 0
KME1 100357Z 21003KT M02/M04 A304 RMK A01 T10211038  RH  089%=      5-min Rain = 0
KME1 100358Z 21002KT M02/M04 A304 RMK A01 T10221038  RH  089%=      5-min Rain = 0
KME1 100359Z 20003KT M02/M04 A304 RMK A01 T10211038  RH  089%=      5-min Rain = 0
KME1 100400Z 20003KT M02/M04 A304 RMK A01 T10211038  RH  089%=      5-min Rain = 0
KME1 100401Z 20003KT M02/M04 A304 RMK A01 T10221038  RH  089%=      5-min Rain = 0
KME1 100402Z 20003KT M02/M04 A304 RMK A01 T10211038  RH  088%=      5-min Rain = 0
KME1 100403Z 20003KT M02/M04 A304 RMK A01 T10211038  RH  088%=      5-min Rain = 0
KME1 100404Z 20004KT M02/M04 A304 RMK A01 T10211038  RH  088%=      5-min Rain = 0
KME1 100405Z 20004KT M02/M04 A304 RMK A01 T10211038  RH  088%=      5-min Rain = 0
KME1 100406Z 21004KT M02/M04 A304 RMK A01 T10201038  RH  088%=      5-min Rain = 0
KME1 100407Z 20003KT M02/M04 A304 RMK A01 T10201038  RH  088%=      5-min Rain = 0
KME1 100408Z 21003KT M02/M04 A304 RMK A01 T10201038  RH  087%=      5-min Rain = 0
KME1 100409Z 21003KT M02/M04 A304 RMK A01 T10201039  RH  087%=      5-min Rain = 0
KME1 100410Z 20003KT M02/M04 A304 RMK A01 T10211039  RH  087%=      5-min Rain = 0
KME1 100411Z 20003KT M02/M04 A304 RMK A01 T10201039  RH  087%=      5-min Rain = 0
KME1 100412Z 20003KT M02/M04 A304 RMK A01 T10201038  RH  087%=      5-min Rain = 0
KME1 100413Z 21003KT M02/M04 A304 RMK A01 T10201038  RH  087%=      5-min Rain = 0
KME1 100414Z 21003KT M02/M04 A304 RMK A01 T10191038  RH  087%=      5-min Rain = 0
KME1 100415Z 21003KT M02/M04 A304 RMK A01 T10201038  RH  087%=      5-min Rain = 0
KME1 100416Z 21003KT M02/M04 A304 RMK A01 T10201038  RH  087%=      5-min Rain = 0
KME1 100417Z 21003KT M02/M04 A304 RMK A01 T10211039  RH  087%=      5-min Rain = 0
KME1 100418Z 22003KT M02/M04 A304 RMK A01 T10211038  RH  088%=      5-min Rain = 0
KME1 100419Z 21003KT M02/M04 A304 RMK A01 T10211038  RH  088%=      5-min Rain = 0
KME1 100420Z 21003KT M02/M04 A304 RMK A01 T10211038  RH  088%=      5-min Rain = 0
KME1 100421Z 21002KT M02/M04 A304 RMK A01 T10221038  RH  089%=      5-min Rain = 0
KME1 100422Z 22002KT M02/M04 A304 RMK A01 T10221038  RH  089%=      5-min Rain = 0
KME1 100423Z 22002KT M02/M04 A304 RMK A01 T10221038  RH  089%=      5-min Rain = 0
KME1 100424Z 21003KT M02/M04 A304 RMK A01 T10221038  RH  089%=      5-min Rain = 0
KME1 100425Z 21003KT M02/M04 A304 RMK A01 T10231038  RH  089%=      5-min Rain = 0
KME1 100426Z 20003KT M02/M04 A304 RMK A01 T10231038  RH  089%=      5-min Rain = 0
KME1 100427Z 20004KT M02/M04 A304 RMK A01 T10231038  RH  089%=      5-min Rain = 0
KME1 100428Z 20004KT M02/M04 A304 RMK A01 T10231038  RH  090%=      5-min Rain = 0
KME1 100429Z 20004KT M02/M04 A304 RMK A01 T10231039  RH  089%=      5-min Rain = 0
KME1 100430Z 20004KT M02/M04 A304 RMK A01 T10231040  RH  089%=      5-min Rain = 0
KME1 100431Z 21004KT M02/M04 A304 RMK A01 T10231040  RH  088%=      5-min Rain = 0
KME1 100432Z 21003KT M02/M04 A304 RMK A01 T10241041  RH  088%=      5-min Rain = 0
KME1 100433Z 20003KT M03/M04 A304 RMK A01 T10251041  RH  088%=      5-min Rain = 0
KME1 100434Z 20004KT M03/M04 A304 RMK A01 T10251041  RH  089%=      5-min Rain = 0
KME1 100435Z 20004KT M03/M04 A304 RMK A01 T10261041  RH  089%=      5-min Rain = 0
KME1 100436Z 20004KT M03/M04 A304 RMK A01 T10261041  RH  089%=      5-min Rain = 0
KME1 100437Z 20004KT M03/M04 A304 RMK A01 T10261041  RH  090%=      5-min Rain = 0
KME1 100438Z 20004KT M03/M04 A304 RMK A01 T10261040  RH  090%=      5-min Rain = 0
KME1 100439Z 20004KT M03/M04 A304 RMK A01 T10251039  RH  090%=      5-min Rain = 0
KME1 100440Z 21004KT M03/M04 A304 RMK A01 T10251039  RH  090%=      5-min Rain = 0
KME1 100441Z 21004KT M03/M04 A3041 RMK A01 T10251039  RH  090%=      5-min Rain = 0
KME1 100442Z 22002KT M02/M04 A3041 RMK A01 T10241039  RH  089%=      5-min Rain = 0
KME1 100443Z 25001KT M02/M04 A3041 RMK A01 T10241040  RH  089%=      5-min Rain = 0
KME1 100444Z 27001KT M02/M04 A3041 RMK A01 T10241041  RH  088%=      5-min Rain = 0
KME1 100445Z 32002KT M02/M04 A3041 RMK A01 T10241041  RH  088%=      5-min Rain = 0
KME1 100446Z 34003KT M02/M04 A3041 RMK A01 T10241041  RH  088%=      5-min Rain = 0
KME1 100447Z 34003KT M03/M04 A3041 RMK A01 T10251042  RH  088%=      5-min Rain = 0
KME1 100448Z 34002KT M03/M04 A3041 RMK A01 T10261042  RH  089%=      5-min Rain = 0
KME1 100449Z 34002KT M03/M04 A3041 RMK A01 T10261042  RH  089%=      5-min Rain = 0
KME1 100450Z 33002KT M03/M04 A3041 RMK A01 T10261042  RH  089%=      5-min Rain = 0
KME1 100451Z 33002KT M03/M04 A3041 RMK A01 T10261042  RH  089%=      5-min Rain = 0
KME1 100452Z 32002KT M03/M04 A3041 RMK A01 T10261042  RH  089%=      5-min Rain = 0
KME1 100453Z 32001KT M03/M04 A3041 RMK A01 T10261041  RH  089%=      5-min Rain = 0
KME1 100454Z 32000KT M03/M04 A3041 RMK A01 T10271042  RH  089%=      5-min Rain = 0
KME1 100455Z 26000KT M03/M04 A3041 RMK A01 T10261042  RH  089%=      5-min Rain = 0
KME1 100456Z 00000KT M03/M04 A3041 RMK A01 T10261041  RH  089%=      5-min Rain = 0
KME1 100457Z 26001KT M03/M04 A3041 RMK A01 T10261041  RH  089%=      5-min Rain = 0
KME1 100458Z 26000KT M03/M04 A3041 RMK A01 T10261041  RH  089%=      5-min Rain = 0
KME1 100459Z 00000KT M03/M04 A3041 RMK A01 T10261041  RH  089%=      5-min Rain = 0
KME1 100500Z 00000KT M03/M04 A3041 RMK A01 T10251040  RH  090%=      5-min Rain = 0
KME1 100501Z 00000KT M03/M04 A3041 RMK A01 T10261040  RH  090%=      5-min Rain = 0
KME1 100502Z 21000KT M03/M04 A3041 RMK A01 T10261039  RH  090%=      5-min Rain = 0
KME1 100503Z 20001KT M03/M04 A3041 RMK A01 T10261039  RH  090%=      5-min Rain = 0
KME1 100504Z 18002KT M03/M04 A3041 RMK A01 T10261040  RH  090%=      5-min Rain = 0
KME1 100505Z 17002KT M03/M04 A3041 RMK A01 T10271041  RH  090%=      5-min Rain = 0
KME1 100506Z 17002KT M03/M04 A3041 RMK A01 T10271041  RH  091%=      5-min Rain = 0
KME1 100507Z 18003KT M03/M04 A3041 RMK A01 T10281041  RH  091%=      5-min Rain = 0
KME1 100508Z 18003KT M03/M04 A3041 RMK A01 T10281041  RH  091%=      5-min Rain = 0
KME1 100509Z 19003KT M03/M04 A3041 RMK A01 T10291041  RH  091%=      5-min Rain = 0
KME1 100510Z 19003KT M03/M04 A3041 RMK A01 T10291041  RH  091%=      5-min Rain = 0
KME1 100511Z 20004KT M03/M04 A3041 RMK A01 T10291042  RH  091%=      5-min Rain = 0
KME1 100512Z 20004KT M03/M04 A3041 RMK A01 T10301042  RH  091%=      5-min Rain = 0
KME1 100513Z 19004KT M03/M04 A3041 RMK A01 T10301042  RH  091%=      5-min Rain = 0
KME1 100514Z 19004KT M03/M04 A3041 RMK A01 T10301042  RH  092%=      5-min Rain = 0
KME1 100515Z 19003KT M03/M04 A3041 RMK A01 T10301042  RH  092%=      5-min Rain = 0
KME1 100516Z 19003KT M03/M04 A3041 RMK A01 T10301041  RH  092%=      5-min Rain = 0
KME1 100517Z 19003KT M03/M04 A3041 RMK A01 T10301041  RH  092%=      5-min Rain = 0
KME1 100518Z 19004KT M03/M04 A3041 RMK A01 T10301040  RH  092%=      5-min Rain = 0
KME1 100519Z 19004KT M03/M04 A3041 RMK A01 T10291040  RH  093%=      5-min Rain = 0
KME1 100520Z 19004KT M03/M04 A3041 RMK A01 T10291039  RH  093%=      5-min Rain = 0
KME1 100521Z 19004KT M03/M04 A3041 RMK A01 T10281038  RH  093%=      5-min Rain = 0
KME1 100522Z 20003KT M03/M04 A3041 RMK A01 T10281038  RH  093%=      5-min Rain = 0
KME1 100523Z 20003KT M03/M04 A3041 RMK A01 T10281037  RH  093%=      5-min Rain = 0
KME1 100524Z 20003KT M03/M04 A3042 RMK A01 T10281037  RH  093%=      5-min Rain = 0
KME1 100525Z 20003KT M03/M04 A3042 RMK A01 T10281037  RH  093%=      5-min Rain = 0
KME1 100526Z 19003KT M03/M04 A3042 RMK A01 T10281038  RH  093%=      5-min Rain = 0
KME1 100527Z 19003KT M03/M04 A3041 RMK A01 T10281037  RH  093%=      5-min Rain = 0
KME1 100528Z 18003KT M03/M04 A3041 RMK A01 T10281037  RH  093%=      5-min Rain = 0
KME1 100529Z 18003KT M03/M04 A3041 RMK A01 T10281037  RH  094%=      5-min Rain = 0
KME1 100530Z 18003KT M03/M04 A3041 RMK A01 T10281036  RH  094%=      5-min Rain = 0
KME1 100531Z 18003KT M03/M04 A3041 RMK A01 T10281036  RH  094%=      5-min Rain = 0
KME1 100532Z 19003KT M03/M04 A3042 RMK A01 T10281036  RH  094%=      5-min Rain = 0
KME1 100533Z 19003KT M03/M04 A3042 RMK A01 T10281036  RH  094%=      5-min Rain = 0
KME1 100534Z 19003KT M03/M04 A3042 RMK A01 T10281036  RH  094%=      5-min Rain = 0
KME1 100535Z 19003KT M03/M04 A3042 RMK A01 T10281037  RH  094%=      5-min Rain = 0
KME1 100536Z 19004KT M03/M04 A3042 RMK A01 T10291037  RH  094%=      5-min Rain = 0
KME1 100537Z 19004KT M03/M04 A3042 RMK A01 T10291037  RH  094%=      5-min Rain = 0
KME1 100538Z 19004KT M03/M04 A3042 RMK A01 T10291037  RH  094%=      5-min Rain = 0
KME1 100539Z 19004KT M03/M04 A3042 RMK A01 T10291037  RH  094%=      5-min Rain = 0
KME1 100540Z 20004KT M03/M04 A3042 RMK A01 T10291037  RH  094%=      5-min Rain = 0
KME1 100541Z 20003KT M03/M04 A3042 RMK A01 T10291037  RH  094%=      5-min Rain = 0
KME1 100542Z 20003KT M03/M04 A3042 RMK A01 T10291037  RH  095%=      5-min Rain = 0
KME1 100543Z 20004KT M03/M04 A3042 RMK A01 T10291036  RH  095%=      5-min Rain = 0
KME1 100544Z 20004KT M03/M04 A3042 RMK A01 T10291037  RH  095%=      5-min Rain = 0
KME1 100545Z 20004KT M03/M04 A3042 RMK A01 T10291037  RH  095%=      5-min Rain = 0
KME1 100546Z 20004KT M03/M04 A3042 RMK A01 T10291036  RH  095%=      5-min Rain = 0
KME1 100547Z 20004KT M03/M04 A3042 RMK A01 T10291036  RH  095%=      5-min Rain = 0
KME1 100548Z 20004KT M03/M04 A3041 RMK A01 T10291037  RH  095%=      5-min Rain = 0
KME1 100549Z 21004KT M03/M04 A3041 RMK A01 T10291036  RH  095%=      5-min Rain = 0
KME1 100550Z 21004KT M03/M04 A3042 RMK A01 T10291036  RH  095%=      5-min Rain = 0
KME1 100551Z 21004KT M03/M04 A3042 RMK A01 T10281036  RH  095%=      5-min Rain = 0
KME1 100552Z 22004KT M03/M04 A3042 RMK A01 T10291036  RH  095%=      5-min Rain = 0
KME1 100553Z 22005KT M03/M04 A3042 RMK A01 T10291037  RH  094%=      5-min Rain = 0
KME1 100554Z 22005KT M03/M04 A3041 RMK A01 T10291037  RH  094%=      5-min Rain = 0
KME1 100555Z 21005KT M03/M04 A3041 RMK A01 T10291037  RH  094%=      5-min Rain = 0
KME1 100556Z 21005KT M03/M04 A3041 RMK A01 T10291036  RH  094%=      5-min Rain = 0
KME1 100557Z 21005KT M03/M04 A3041 RMK A01 T10291037  RH  094%=      5-min Rain = 0
KME1 100558Z 21005KT M03/M04 A3041 RMK A01 T10281037  RH  094%=      5-min Rain = 0
KME1 100559Z 21005KT M03/M04 A3041 RMK A01 T10291037  RH  094%=      5-min Rain = 0

Page generated in 0.1985 seconds.